Wetterdaten: Donnerstag, 24.07.2014
Datum Zeit Temp. Aussen +5cm Feuchte Auss Luftdruck Regen Sonnenschein Regendauer UV Solar Windben
24.07.2014 00:00 21,2 C 19,4 C 75 % 1015,7 hPa 0,0 l/m 0 min 0 min 0,0 UV-I 0 W/m 0,0 km/h (0 Bft)
24.07.2014 00:02 21,2 C 19,4 C 75 % 1015,7 hPa 0,0 l/m 0 min 0 min 0,0 UV-I 0 W/m 0,0 km/h (0 Bft)
24.07.2014 00:06 21,0 C 19,4 C 76 % 1015,7 hPa 0,0 l/m 0 min 0 min 0,0 UV-I 0 W/m 0,0 km/h (0 Bft)
24.07.2014 00:08 21,0 C 19,4 C 76 % 1015,7 hPa 0,0 l/m 0 min 0 min 0,0 UV-I 0 W/m 6,3 km/h (2 Bft)
24.07.2014 00:10 20,9 C 19,4 C 76 % 1015,7 hPa 0,0 l/m 0 min 0 min 0,0 UV-I 0 W/m 0,0 km/h (0 Bft)
24.07.2014 00:12 20,9 C 19,4 C 76 % 1015,7 hPa 0,0 l/m 0 min 0 min 0,0 UV-I 0 W/m 0,0 km/h (0 Bft)
24.07.2014 00:14 20,9 C 19,4 C 76 % 1015,6 hPa 0,0 l/m 0 min 0 min 0,0 UV-I 0 W/m 0,0 km/h (0 Bft)
24.07.2014 00:16 20,9 C 18,9 C 76 % 1015,7 hPa 0,0 l/m 0 min 0 min 0,0 UV-I 0 W/m 0,0 km/h (0 Bft)
24.07.2014 00:18 20,9 C 18,9 C 76 % 1015,7 hPa 0,0 l/m 0 min 0 min 0,0 UV-I 0 W/m 0,0 km/h (0 Bft)
24.07.2014 00:20 20,8 C 18,9 C 77 % 1015,7 hPa 0,0 l/m 0 min 0 min 0,0 UV-I 0 W/m 0,0 km/h (0 Bft)
24.07.2014 00:22 20,7 C 18,9 C 77 % 1015,7 hPa 0,0 l/m 0 min 0 min 0,0 UV-I 0 W/m 0,0 km/h (0 Bft)
24.07.2014 00:24 20,7 C 18,9 C 77 % 1015,7 hPa 0,0 l/m 0 min 0 min 0,0 UV-I 0 W/m 0,0 km/h (0 Bft)
24.07.2014 00:26 20,6 C 18,3 C 78 % 1015,6 hPa 0,0 l/m 0 min 0 min 0,0 UV-I 0 W/m 0,0 km/h (0 Bft)
24.07.2014 00:28 20,6 C 18,3 C 78 % 1015,6 hPa 0,0 l/m 0 min 0 min 0,0 UV-I 0 W/m 0,0 km/h (0 Bft)
24.07.2014 00:30 20,6 C 18,3 C 78 % 1015,6 hPa 0,0 l/m 0 min 0 min 0,0 UV-I 0 W/m 0,0 km/h (0 Bft)
24.07.2014 00:32 20,5 C 18,3 C 78 % 1015,6 hPa 0,0 l/m 0 min 0 min 0,0 UV-I 0 W/m 0,0 km/h (0 Bft)
24.07.2014 00:34 20,4 C 18,3 C 78 % 1015,6 hPa 0,0 l/m 0 min 0 min 0,0 UV-I 0 W/m 0,0 km/h (0 Bft)
24.07.2014 00:36 20,3 C 18,3 C 79 % 1015,6 hPa 0,0 l/m 0 min 0 min 0,0 UV-I 0 W/m 0,0 km/h (0 Bft)
24.07.2014 00:38 20,2 C 17,8 C 79 % 1015,6 hPa 0,0 l/m 0 min 0 min 0,0 UV-I 0 W/m 0,0 km/h (0 Bft)
24.07.2014 00:40 20,2 C 17,8 C 79 % 1015,6 hPa 0,0 l/m 0 min 0 min 0,0 UV-I 0 W/m 0,0 km/h (0 Bft)
24.07.2014 00:42 20,2 C 17,8 C 79 % 1015,6 hPa 0,0 l/m 0 min 0 min 0,0 UV-I 0 W/m 0,0 km/h (0 Bft)
24.07.2014 00:44 20,2 C 17,8 C 80 % 1015,6 hPa 0,0 l/m 0 min 0 min 0,0 UV-I 0 W/m 0,0 km/h (0 Bft)
24.07.2014 00:46 20,1 C 17,8 C 79 % 1015,5 hPa 0,0 l/m 0 min 0 min 0,0 UV-I 0 W/m 0,0 km/h (0 Bft)
24.07.2014 00:48 20,1 C 17,8 C 79 % 1015,5 hPa 0,0 l/m 0 min 0 min 0,0 UV-I 0 W/m 0,0 km/h (0 Bft)
24.07.2014 00:50 20,1 C 17,8 C 79 % 1015,5 hPa 0,0 l/m 0 min 0 min 0,0 UV-I 0 W/m 0,0 km/h (0 Bft)
24.07.2014 00:52 20,1 C 17,8 C 80 % 1015,5 hPa 0,0 l/m 0 min 0 min 0,0 UV-I 0 W/m 0,0 km/h (0 Bft)
24.07.2014 00:54 20,0 C 17,8 C 80 % 1015,6 hPa 0,0 l/m 0 min 0 min 0,0 UV-I 0 W/m 0,0 km/h (0 Bft)
24.07.2014 00:56 19,9 C 17,8 C 80 % 1015,5 hPa 0,0 l/m 0 min 0 min 0,0 UV-I 0 W/m 0,0 km/h (0 Bft)
24.07.2014 00:58 19,9 C 17,2 C 80 % 1015,5 hPa 0,0 l/m 0 min 0 min 0,0 UV-I 0 W/m 0,0 km/h (0 Bft)
24.07.2014 01:00 19,8 C 17,2 C 81 % 1015,5 hPa 0,0 l/m 0 min 0 min 0,0 UV-I 0 W/m 0,0 km/h (0 Bft)
24.07.2014 01:02 19,8 C 17,2 C 81 % 1015,5 hPa 0,0 l/m 0 min 0 min 0,0 UV-I 0 W/m 0,0 km/h (0 Bft)
24.07.2014 01:04 19,8 C 17,2 C 81 % 1015,5 hPa 0,0 l/m 0 min 0 min 0,0 UV-I 0 W/m 0,0 km/h (0 Bft)
24.07.2014 01:06 19,7 C 17,2 C 82 % 1015,5 hPa 0,0 l/m 0 min 0 min 0,0 UV-I 0 W/m 0,0 km/h (0 Bft)
24.07.2014 01:08 19,7 C 17,2 C 82 % 1015,5 hPa 0,0 l/m 0 min 0 min 0,0 UV-I 0 W/m 0,0 km/h (0 Bft)
24.07.2014 01:10 19,6 C 17,2 C 82 % 1015,5 hPa 0,0 l/m 0 min 0 min 0,0 UV-I 0 W/m 0,0 km/h (0 Bft)
24.07.2014 01:12 19,5 C 17,2 C 83 % 1015,5 hPa 0,0 l/m 0 min 0 min 0,0 UV-I 0 W/m 0,0 km/h (0 Bft)
24.07.2014 01:14 19,4 C 17,2 C 83 % 1015,5 hPa 0,0 l/m 0 min 0 min 0,0 UV-I 0 W/m 0,0 km/h (0 Bft)
24.07.2014 01:16 19,3 C 17,2 C 83 % 1015,5 hPa 0,0 l/m 0 min 0 min 0,0 UV-I 0 W/m 0,0 km/h (0 Bft)
24.07.2014 01:18 19,3 C 17,2 C 84 % 1015,4 hPa 0,0 l/m 0 min 0 min 0,0 UV-I 0 W/m 0,0 km/h (0 Bft)
24.07.2014 01:20 19,2 C 17,2 C 84 % 1015,5 hPa 0,0 l/m 0 min 0 min 0,0 UV-I 0 W/m 0,0 km/h (0 Bft)
24.07.2014 01:22 19,2 C 17,2 C 84 % 1015,4 hPa 0,0 l/m 0 min 0 min 0,0 UV-I 0 W/m 0,0 km/h (0 Bft)
24.07.2014 01:24 19,1 C 17,2 C 85 % 1015,4 hPa 0,0 l/m 0 min 0 min 0,0 UV-I 0 W/m 0,0 km/h (0 Bft)
24.07.2014 01:26 19,1 C 17,2 C 85 % 1015,5 hPa 0,0 l/m 0 min 0 min 0,0 UV-I 0 W/m 0,0 km/h (0 Bft)
24.07.2014 01:28 18,9 C 17,2 C 85 % 1015,4 hPa 0,0 l/m 0 min 0 min 0,0 UV-I 0 W/m 0,0 km/h (0 Bft)
24.07.2014 01:30 18,9 C 16,7 C 85 % 1015,4 hPa 0,0 l/m 0 min 0 min 0,0 UV-I 0 W/m 0,0 km/h (0 Bft)
24.07.2014 01:32 18,9 C 16,7 C 85 % 1015,4 hPa 0,0 l/m 0 min 0 min 0,0 UV-I 0 W/m 0,0 km/h (0 Bft)
24.07.2014 01:34 18,9 C 16,7 C 85 % 1015,4 hPa 0,0 l/m 0 min 0 min 0,0 UV-I 0 W/m 0,0 km/h (0 Bft)
24.07.2014 01:36 18,9 C 16,7 C 85 % 1015,4 hPa 0,0 l/m 0 min 0 min 0,0 UV-I 0 W/m 0,0 km/h (0 Bft)
24.07.2014 01:38 18,9 C 16,7 C 85 % 1015,5 hPa 0,0 l/m 0 min 0 min 0,0 UV-I 0 W/m 0,0 km/h (0 Bft)
24.07.2014 01:40 18,9 C 17,2 C 85 % 1015,5 hPa 0,0 l/m 0 min 0 min 0,0 UV-I 0 W/m 0,0 km/h (0 Bft)
24.07.2014 01:42 19,0 C 17,2 C 84 % 1015,5 hPa 0,0 l/m 0 min 0 min 0,0 UV-I 0 W/m 0,0 km/h (0 Bft)
24.07.2014 01:44 19,1 C 17,2 C 84 % 1015,5 hPa 0,0 l/m 0 min 0 min 0,0 UV-I 0 W/m 10,5 km/h (2 Bft)
24.07.2014 01:46 19,1 C 17,8 C 84 % 1015,5 hPa 0,0 l/m 0 min 0 min 0,0 UV-I 0 W/m 10,5 km/h (2 Bft)
24.07.2014 01:48 19,1 C 17,8 C 84 % 1015,4 hPa 0,0 l/m 0 min 0 min 0,0 UV-I 0 W/m 6,3 km/h (2 Bft)
24.07.2014 01:50 19,1 C 17,2 C 84 % 1015,4 hPa 0,0 l/m 0 min 0 min 0,0 UV-I 0 W/m 0,0 km/h (0 Bft)
24.07.2014 01:52 19,0 C 17,2 C 84 % 1015,4 hPa 0,0 l/m 0 min 0 min 0,0 UV-I 0 W/m 0,0 km/h (0 Bft)
24.07.2014 01:54 19,0 C 17,2 C 84 % 1015,4 hPa 0,0 l/m 0 min 0 min 0,0 UV-I 0 W/m 0,0 km/h (0 Bft)
24.07.2014 01:56 18,9 C 17,2 C 84 % 1015,4 hPa 0,0 l/m 0 min 0 min 0,0 UV-I 0 W/m 0,0 km/h (0 Bft)
24.07.2014 01:58 18,9 C 17,2 C 84 % 1015,3 hPa 0,0 l/m 0 min 0 min 0,0 UV-I 0 W/m 0,0 km/h (0 Bft)
24.07.2014 02:00 18,8 C 16,7 C 85 % 1015,3 hPa 0,0 l/m 0 min 0 min 0,0 UV-I 0 W/m 0,0 km/h (0 Bft)
24.07.2014 02:02 18,8 C 16,7 C 85 % 1015,4 hPa 0,0 l/m 0 min 0 min 0,0 UV-I 0 W/m 0,0 km/h (0 Bft)
24.07.2014 02:04 18,8 C 16,7 C 85 % 1015,4 hPa 0,0 l/m 0 min 0 min 0,0 UV-I 0 W/m 0,0 km/h (0 Bft)
24.07.2014 02:06 18,7 C 16,7 C 85 % 1015,4 hPa 0,0 l/m 0 min 0 min 0,0 UV-I 0 W/m 6,3 km/h (2 Bft)
24.07.2014 02:08 18,7 C 16,7 C 85 % 1015,3 hPa 0,0 l/m 0 min 0 min 0,0 UV-I 0 W/m 2,1 km/h (1 Bft)
24.07.2014 02:10 18,6 C 16,7 C 85 % 1015,3 hPa 0,0 l/m 0 min 0 min 0,0 UV-I 0 W/m 0,0 km/h (0 Bft)
24.07.2014 02:12 18,6 C 16,7 C 85 % 1015,3 hPa 0,0 l/m 0 min 0 min 0,0 UV-I 0 W/m 0,0 km/h (0 Bft)
24.07.2014 02:14 18,6 C 16,7 C 86 % 1015,3 hPa 0,0 l/m 0 min 0 min 0,0 UV-I 0 W/m 0,0 km/h (0 Bft)
24.07.2014 02:16 18,6 C 16,7 C 86 % 1015,3 hPa 0,0 l/m 0 min 0 min 0,0 UV-I 0 W/m 0,0 km/h (0 Bft)
24.07.2014 02:18 18,6 C 16,7 C 85 % 1015,3 hPa 0,0 l/m 0 min 0 min 0,0 UV-I 0 W/m 0,0 km/h (0 Bft)
24.07.2014 02:20 18,6 C 16,7 C 85 % 1015,3 hPa 0,0 l/m 0 min 0 min 0,0 UV-I 0 W/m 0,0 km/h (0 Bft)
24.07.2014 02:22 18,6 C 16,7 C 85 % 1015,3 hPa 0,0 l/m 0 min 0 min 0,0 UV-I 0 W/m 0,0 km/h (0 Bft)
24.07.2014 02:24 18,5 C 16,7 C 85 % 1015,3 hPa 0,0 l/m 0 min 0 min 0,0 UV-I 0 W/m 0,0 km/h (0 Bft)
24.07.2014 02:26 18,5 C 16,1 C 86 % 1015,3 hPa 0,0 l/m 0 min 0 min 0,0 UV-I 0 W/m 0,0 km/h (0 Bft)
24.07.2014 02:28 18,4 C 16,1 C 86 % 1015,3 hPa 0,0 l/m 0 min 0 min 0,0 UV-I 0 W/m 0,0 km/h (0 Bft)
24.07.2014 02:30 18,4 C 16,1 C 86 % 1015,3 hPa 0,0 l/m 0 min 0 min 0,0 UV-I 0 W/m 0,0 km/h (0 Bft)
24.07.2014 02:32 18,3 C 16,1 C 86 % 1015,2 hPa 0,0 l/m 0 min 0 min 0,0 UV-I 0 W/m 0,0 km/h (0 Bft)
24.07.2014 02:34 18,3 C 16,1 C 86 % 1015,2 hPa 0,0 l/m 0 min 0 min 0,0 UV-I 0 W/m 0,0 km/h (0 Bft)
24.07.2014 02:36 18,3 C 16,1 C 86 % 1015,2 hPa 0,0 l/m 0 min 0 min 0,0 UV-I 0 W/m 0,0 km/h (0 Bft)
24.07.2014 02:38 18,2 C 16,1 C 87 % 1015,2 hPa 0,0 l/m 0 min 0 min 0,0 UV-I 0 W/m 0,0 km/h (0 Bft)
24.07.2014 02:40 18,2 C 16,1 C 87 % 1015,2 hPa 0,0 l/m 0 min 0 min 0,0 UV-I 0 W/m 0,0 km/h (0 Bft)
24.07.2014 02:42 18,2 C 16,1 C 87 % 1015,2 hPa 0,0 l/m 0 min 0 min 0,0 UV-I 0 W/m 0,0 km/h (0 Bft)
24.07.2014 02:44 18,1 C 16,1 C 87 % 1015,2 hPa 0,0 l/m 0 min 0 min 0,0 UV-I 0 W/m 0,0 km/h (0 Bft)
24.07.2014 02:46 18,1 C 16,1 C 87 % 1015,2 hPa 0,0 l/m 0 min 0 min 0,0 UV-I 0 W/m 0,0 km/h (0 Bft)
24.07.2014 02:48 18,1 C 16,1 C 87 % 1015,2 hPa 0,0 l/m 0 min 0 min 0,0 UV-I 0 W/m 0,0 km/h (0 Bft)
24.07.2014 02:50 18,1 C 16,1 C 87 % 1015,1 hPa 0,0 l/m 0 min 0 min 0,0 UV-I 0 W/m 0,0 km/h (0 Bft)
24.07.2014 02:52 18,0 C 16,1 C 87 % 1015,1 hPa 0,0 l/m 0 min 0 min 0,0 UV-I 0 W/m 0,0 km/h (0 Bft)
24.07.2014 02:54 18,0 C 16,1 C 87 % 1015,1 hPa 0,0 l/m 0 min 0 min 0,0 UV-I 0 W/m 0,0 km/h (0 Bft)
24.07.2014 02:56 17,9 C 16,1 C 87 % 1015,1 hPa 0,0 l/m 0 min 0 min 0,0 UV-I 0 W/m 0,0 km/h (0 Bft)
24.07.2014 02:58 17,9 C 16,1 C 87 % 1015,1 hPa 0,0 l/m 0 min 0 min 0,0 UV-I 0 W/m 0,0 km/h (0 Bft)
24.07.2014 03:00 17,9 C 16,1 C 87 % 1015,1 hPa 0,0 l/m 0 min 0 min 0,0 UV-I 0 W/m 0,0 km/h (0 Bft)
24.07.2014 03:02 17,8 C 15,6 C 87 % 1015,1 hPa 0,0 l/m 0 min 0 min 0,0 UV-I 0 W/m 0,0 km/h (0 Bft)
24.07.2014 03:04 17,8 C 15,6 C 87 % 1015,1 hPa 0,0 l/m 0 min 0 min 0,0 UV-I 0 W/m 0,0 km/h (0 Bft)
24.07.2014 03:06 17,7 C 15,6 C 87 % 1015,1 hPa 0,0 l/m 0 min 0 min 0,0 UV-I 0 W/m 0,0 km/h (0 Bft)
24.07.2014 03:08 17,7 C 15,6 C 88 % 1015,1 hPa 0,0 l/m 0 min 0 min 0,0 UV-I 0 W/m 0,0 km/h (0 Bft)
24.07.2014 03:10 17,6 C 15,6 C 88 % 1015,1 hPa 0,0 l/m 0 min 0 min 0,0 UV-I 0 W/m 0,0 km/h (0 Bft)
24.07.2014 03:12 17,6 C 15,6 C 88 % 1015,0 hPa 0,0 l/m 0 min 0 min 0,0 UV-I 0 W/m 0,0 km/h (0 Bft)
24.07.2014 03:14 17,6 C 15,6 C 88 % 1015,1 hPa 0,0 l/m 0 min 0 min 0,0 UV-I 0 W/m 0,0 km/h (0 Bft)
24.07.2014 03:16 17,6 C 15,6 C 89 % 1015,0 hPa 0,0 l/m 0 min 0 min 0,0 UV-I 0 W/m 0,0 km/h (0 Bft)
24.07.2014 03:18 17,5 C 15,6 C 89 % 1015,1 hPa 0,0 l/m 0 min 0 min 0,0 UV-I 0 W/m 0,0 km/h (0 Bft)
24.07.2014 03:20 17,4 C 15,6 C 89 % 1015,1 hPa 0,0 l/m 0 min 0 min 0,0 UV-I 0 W/m 0,0 km/h (0 Bft)
24.07.2014 03:22 17,4 C 15,6 C 89 % 1015,1 hPa 0,0 l/m 0 min 0 min 0,0 UV-I 0 W/m 0,0 km/h (0 Bft)
24.07.2014 03:24 17,3 C 15,6 C 89 % 1015,1 hPa 0,0 l/m 0 min 0 min 0,0 UV-I 0 W/m 0,0 km/h (0 Bft)
24.07.2014 03:26 17,2 C 15,6 C 89 % 1015,0 hPa 0,0 l/m 0 min 0 min 0,0 UV-I 0 W/m 0,0 km/h (0 Bft)
24.07.2014 03:28 17,2 C 15,6 C 90 % 1015,0 hPa 0,0 l/m 0 min 0 min 0,0 UV-I 0 W/m 0,0 km/h (0 Bft)
24.07.2014 03:30 17,2 C 15,6 C 90 % 1015,0 hPa 0,0 l/m 0 min 0 min 0,0 UV-I 0 W/m 0,0 km/h (0 Bft)
24.07.2014 03:32 17,1 C 15,6 C 90 % 1015,1 hPa 0,0 l/m 0 min 0 min 0,0 UV-I 0 W/m 0,0 km/h (0 Bft)
24.07.2014 03:34 17,1 C 15,6 C 90 % 1015,0 hPa 0,0 l/m 0 min 0 min 0,0 UV-I 0 W/m 0,0 km/h (0 Bft)
24.07.2014 03:36 17,1 C 15,6 C 90 % 1015,1 hPa 0,0 l/m 0 min 0 min 0,0 UV-I 0 W/m 0,0 km/h (0 Bft)
24.07.2014 03:38 17,1 C 15,6 C 90 % 1015,0 hPa 0,0 l/m 0 min 0 min 0,0 UV-I 0 W/m 0,0 km/h (0 Bft)
24.07.2014 03:40 17,1 C 15,6 C 90 % 1015,0 hPa 0,0 l/m 0 min 0 min 0,0 UV-I 0 W/m 2,1 km/h (1 Bft)
24.07.2014 03:42 17,1 C 15,6 C 90 % 1015,0 hPa 0,0 l/m 0 min 0 min 0,0 UV-I 0 W/m 0,0 km/h (0 Bft)
24.07.2014 03:44 17,1 C 15,6 C 90 % 1014,9 hPa 0,0 l/m 0 min 0 min 0,0 UV-I 0 W/m 0,0 km/h (0 Bft)
24.07.2014 03:46 17,0 C 15,0 C 90 % 1014,9 hPa 0,0 l/m 0 min 0 min 0,0 UV-I 0 W/m 2,1 km/h (1 Bft)
24.07.2014 03:48 17,1 C 15,0 C 90 % 1014,9 hPa 0,0 l/m 0 min 0 min 0,0 UV-I 0 W/m 0,0 km/h (0 Bft)
24.07.2014 03:50 17,1 C 15,0 C 90 % 1014,9 hPa 0,0 l/m 0 min 0 min 0,0 UV-I 0 W/m 8,4 km/h (2 Bft)
24.07.2014 03:52 17,1 C 15,6 C 90 % 1014,9 hPa 0,0 l/m 0 min 0 min 0,0 UV-I 0 W/m 0,0 km/h (0 Bft)
24.07.2014 03:54 17,2 C 15,0 C 89 % 1014,9 hPa 0,0 l/m 0 min 0 min 0,0 UV-I 0 W/m 0,0 km/h (0 Bft)
24.07.2014 03:56 17,3 C 15,0 C 89 % 1014,9 hPa 0,0 l/m 0 min 0 min 0,0 UV-I 0 W/m 0,0 km/h (0 Bft)
24.07.2014 03:58 17,4 C 15,0 C 88 % 1014,9 hPa 0,0 l/m 0 min 0 min 0,0 UV-I 0 W/m 0,0 km/h (0 Bft)
24.07.2014 04:00 17,4 C 15,0 C 88 % 1014,9 hPa 0,0 l/m 0 min 0 min 0,0 UV-I 0 W/m 0,0 km/h (0 Bft)
24.07.2014 04:02 17,4 C 15,0 C 87 % 1014,9 hPa 0,0 l/m 0 min 0 min 0,0 UV-I 0 W/m 0,0 km/h (0 Bft)
24.07.2014 04:04 17,3 C 15,0 C 87 % 1014,9 hPa 0,0 l/m 0 min 0 min 0,0 UV-I 0 W/m 0,0 km/h (0 Bft)
24.07.2014 04:06 17,3 C 15,0 C 88 % 1014,8 hPa 0,0 l/m 0 min 0 min 0,0 UV-I 0 W/m 0,0 km/h (0 Bft)
24.07.2014 04:08 17,3 C 15,0 C 88 % 1014,8 hPa 0,0 l/m 0 min 0 min 0,0 UV-I 0 W/m 0,0 km/h (0 Bft)
24.07.2014 04:10 17,2 C 15,0 C 88 % 1014,8 hPa 0,0 l/m 0 min 0 min 0,0 UV-I 0 W/m 4,2 km/h (1 Bft)
24.07.2014 04:12 17,2 C 15,0 C 88 % 1014,8 hPa 0,0 l/m 0 min 0 min 0,0 UV-I 0 W/m 0,0 km/h (0 Bft)
24.07.2014 04:14 17,2 C 15,0 C 87 % 1014,8 hPa 0,0 l/m 0 min 0 min 0,0 UV-I 0 W/m 0,0 km/h (0 Bft)
24.07.2014 04:16 17,2 C 15,0 C 87 % 1014,8 hPa 0,0 l/m 0 min 0 min 0,0 UV-I 0 W/m 6,3 km/h (2 Bft)
24.07.2014 04:18 17,2 C 15,0 C 87 % 1014,8 hPa 0,0 l/m 0 min 0 min 0,0 UV-I 0 W/m 4,2 km/h (1 Bft)
24.07.2014 04:20 17,2 C 15,0 C 87 % 1014,8 hPa 0,0 l/m 0 min 0 min 0,0 UV-I 0 W/m 0,0 km/h (0 Bft)
24.07.2014 04:22 17,2 C 15,0 C 87 % 1014,9 hPa 0,0 l/m 0 min 0 min 0,0 UV-I 0 W/m 4,2 km/h (1 Bft)
24.07.2014 04:24 17,2 C 15,0 C 87 % 1014,8 hPa 0,0 l/m 0 min 0 min 0,0 UV-I 0 W/m 4,2 km/h (1 Bft)
24.07.2014 04:26 17,2 C 15,0 C 87 % 1014,9 hPa 0,0 l/m 0 min 0 min 0,0 UV-I 0 W/m 6,3 km/h (2 Bft)
24.07.2014 04:28 17,2 C 15,0 C 87 % 1014,8 hPa 0,0 l/m 0 min 0 min 0,0 UV-I 0 W/m 0,0 km/h (0 Bft)
24.07.2014 04:30 17,2 C 15,0 C 87 % 1014,8 hPa 0,0 l/m 0 min 0 min 0,0 UV-I 0 W/m 2,1 km/h (1 Bft)
24.07.2014 04:32 17,2 C 15,0 C 87 % 1014,8 hPa 0,0 l/m 0 min 0 min 0,0 UV-I 0 W/m 0,0 km/h (0 Bft)
24.07.2014 04:34 17,3 C 15,0 C 87 % 1014,7 hPa 0,0 l/m 0 min 0 min 0,0 UV-I 0 W/m 0,0 km/h (0 Bft)
24.07.2014 04:36 17,3 C 15,0 C 86 % 1014,8 hPa 0,0 l/m 0 min 0 min 0,0 UV-I 0 W/m 0,0 km/h (0 Bft)
24.07.2014 04:38 17,2 C 15,0 C 86 % 1014,7 hPa 0,0 l/m 0 min 0 min 0,0 UV-I 0 W/m 0,0 km/h (0 Bft)
24.07.2014 04:40 17,2 C 15,0 C 87 % 1014,8 hPa 0,0 l/m 0 min 0 min 0,0 UV-I 0 W/m 0,0 km/h (0 Bft)
24.07.2014 04:42 17,2 C 15,0 C 87 % 1014,8 hPa 0,0 l/m 0 min 0 min 0,0 UV-I 0 W/m 8,4 km/h (2 Bft)
24.07.2014 04:44 17,1 C 15,0 C 87 % 1014,8 hPa 0,0 l/m 0 min 0 min 0,0 UV-I 0 W/m 0,0 km/h (0 Bft)
24.07.2014 04:46 17,1 C 15,0 C 87 % 1014,8 hPa 0,0 l/m 0 min 0 min 0,0 UV-I 0 W/m 0,0 km/h (0 Bft)
24.07.2014 04:48 17,1 C 15,0 C 87 % 1014,8 hPa 0,0 l/m 0 min 0 min 0,0 UV-I 0 W/m 0,0 km/h (0 Bft)
24.07.2014 04:50 17,0 C 15,0 C 87 % 1014,7 hPa 0,0 l/m 0 min 0 min 0,0 UV-I 0 W/m 0,0 km/h (0 Bft)
24.07.2014 04:52 17,0 C 15,0 C 87 % 1014,8 hPa 0,0 l/m 0 min 0 min 0,0 UV-I 0 W/m 0,0 km/h (0 Bft)
24.07.2014 04:54 16,9 C 15,0 C 88 % 1014,8 hPa 0,0 l/m 0 min 0 min 0,0 UV-I 0 W/m 0,0 km/h (0 Bft)
24.07.2014 04:56 16,8 C 15,0 C 88 % 1014,8 hPa 0,0 l/m 0 min 0 min 0,0 UV-I 0 W/m 0,0 km/h (0 Bft)
24.07.2014 04:58 16,7 C 15,0 C 88 % 1014,8 hPa 0,0 l/m 0 min 0 min 0,0 UV-I 0 W/m 0,0 km/h (0 Bft)
24.07.2014 05:00 16,6 C 15,0 C 88 % 1014,8 hPa 0,0 l/m 0 min 0 min 0,0 UV-I 0 W/m 0,0 km/h (0 Bft)
24.07.2014 05:02 16,5 C 14,4 C 89 % 1014,8 hPa 0,0 l/m 0 min 0 min 0,0 UV-I 0 W/m 0,0 km/h (0 Bft)
24.07.2014 05:04 16,4 C 14,4 C 89 % 1014,8 hPa 0,0 l/m 0 min 0 min 0,0 UV-I 0 W/m 0,0 km/h (0 Bft)
24.07.2014 05:06 16,3 C 14,4 C 89 % 1014,8 hPa 0,0 l/m 0 min 0 min 0,0 UV-I 0 W/m 0,0 km/h (0 Bft)
24.07.2014 05:08 16,3 C 14,4 C 90 % 1014,8 hPa 0,0 l/m 0 min 0 min 0,0 UV-I 0 W/m 0,0 km/h (0 Bft)
24.07.2014 05:10 16,2 C 14,4 C 90 % 1014,7 hPa 0,0 l/m 0 min 0 min 0,0 UV-I 0 W/m 0,0 km/h (0 Bft)
24.07.2014 05:12 16,2 C 14,4 C 90 % 1014,7 hPa 0,0 l/m 0 min 0 min 0,0 UV-I 0 W/m 0,0 km/h (0 Bft)
24.07.2014 05:14 16,1 C 14,4 C 90 % 1014,7 hPa 0,0 l/m 0 min 0 min 0,0 UV-I 0 W/m 0,0 km/h (0 Bft)
24.07.2014 05:16 16,0 C 14,4 C 90 % 1014,8 hPa 0,0 l/m 0 min 0 min 0,0 UV-I 0 W/m 0,0 km/h (0 Bft)
24.07.2014 05:18 16,0 C 14,4 C 91 % 1014,7 hPa 0,0 l/m 0 min 0 min 0,0 UV-I 0 W/m 0,0 km/h (0 Bft)
24.07.2014 05:20 15,9 C 14,4 C 91 % 1014,8 hPa 0,0 l/m 0 min 0 min 0,0 UV-I 0 W/m 0,0 km/h (0 Bft)
24.07.2014 05:22 15,9 C 14,4 C 91 % 1014,8 hPa 0,0 l/m 0 min 0 min 0,0 UV-I 0 W/m 0,0 km/h (0 Bft)
24.07.2014 05:24 15,9 C 14,4 C 91 % 1014,8 hPa 0,0 l/m 0 min 0 min 0,0 UV-I 0 W/m 0,0 km/h (0 Bft)
24.07.2014 05:26 15,9 C 14,4 C 91 % 1014,8 hPa 0,0 l/m 0 min 0 min 0,0 UV-I 0 W/m 0,0 km/h (0 Bft)
24.07.2014 05:28 15,9 C 14,4 C 91 % 1014,8 hPa 0,0 l/m 0 min 0 min 0,0 UV-I 0 W/m 0,0 km/h (0 Bft)
24.07.2014 05:30 15,9 C 14,4 C 91 % 1014,8 hPa 0,0 l/m 0 min 0 min 0,0 UV-I 0 W/m 0,0 km/h (0 Bft)
24.07.2014 05:32 15,8 C 14,4 C 91 % 1014,8 hPa 0,0 l/m 0 min 0 min 0,0 UV-I 0 W/m 0,0 km/h (0 Bft)
24.07.2014 05:34 15,8 C 14,4 C 92 % 1014,8 hPa 0,0 l/m 0 min 0 min 0,0 UV-I 0 W/m 0,0 km/h (0 Bft)
24.07.2014 05:36 15,8 C 14,4 C 92 % 1014,9 hPa 0,0 l/m 0 min 0 min 0,0 UV-I 0 W/m 0,0 km/h (0 Bft)
24.07.2014 05:38 15,7 C 13,9 C 92 % 1014,8 hPa 0,0 l/m 0 min 0 min 0,0 UV-I 1 W/m 0,0 km/h (0 Bft)
24.07.2014 05:40 15,7 C 13,9 C 92 % 1014,8 hPa 0,0 l/m 0 min 0 min 0,0 UV-I 5 W/m 0,0 km/h (0 Bft)
24.07.2014 05:42 15,7 C 13,9 C 92 % 1014,8 hPa 0,0 l/m 0 min 0 min 0,0 UV-I 5 W/m 0,0 km/h (0 Bft)
24.07.2014 05:44 15,7 C 14,4 C 92 % 1014,8 hPa 0,0 l/m 0 min 0 min 0,0 UV-I 5 W/m 0,0 km/h (0 Bft)
24.07.2014 05:46 15,7 C 13,9 C 92 % 1014,9 hPa 0,0 l/m 0 min 0 min 0,0 UV-I 6 W/m 0,0 km/h (0 Bft)
24.07.2014 05:48 15,7 C 13,9 C 92 % 1014,9 hPa 0,0 l/m 0 min 0 min 0,0 UV-I 7 W/m 0,0 km/h (0 Bft)
24.07.2014 05:50 15,7 C 13,9 C 92 % 1014,9 hPa 0,0 l/m 0 min 0 min 0,0 UV-I 8 W/m 0,0 km/h (0 Bft)
24.07.2014 05:52 15,6 C 13,9 C 92 % 1014,8 hPa 0,0 l/m 0 min 0 min 0,0 UV-I 9 W/m 0,0 km/h (0 Bft)
24.07.2014 05:54 15,6 C 13,9 C 92 % 1014,8 hPa 0,0 l/m 0 min 0 min 0,0 UV-I 11 W/m 0,0 km/h (0 Bft)
24.07.2014 05:56 15,7 C 13,9 C 92 % 1014,8 hPa 0,0 l/m 0 min 0 min 0,0 UV-I 12 W/m 0,0 km/h (0 Bft)
24.07.2014 05:58 15,7 C 13,9 C 93 % 1014,8 hPa 0,0 l/m 0 min 0 min 0,0 UV-I 13 W/m 0,0 km/h (0 Bft)
24.07.2014 06:00 15,7 C 13,9 C 93 % 1014,8 hPa 0,0 l/m 2 min 0 min 0,0 UV-I 16 W/m 0,0 km/h (0 Bft)
24.07.2014 06:02 15,7 C 13,9 C 93 % 1014,8 hPa 0,0 l/m 2 min 0 min 0,0 UV-I 19 W/m 0,0 km/h (0 Bft)
24.07.2014 06:06 15,6 C 13,9 C 92 % 1014,8 hPa 0,0 l/m 2 min 0 min 0,0 UV-I 22 W/m 0,0 km/h (0 Bft)
24.07.2014 06:08 15,6 C 13,9 C 92 % 1014,8 hPa 0,0 l/m 2 min 0 min 0,0 UV-I 26 W/m 0,0 km/h (0 Bft)
24.07.2014 06:10 15,6 C 13,9 C 93 % 1014,8 hPa 0,0 l/m 2 min 0 min 0,0 UV-I 30 W/m 0,0 km/h (0 Bft)
24.07.2014 06:12 15,6 C 13,9 C 93 % 1014,8 hPa 0,0 l/m 2 min 0 min 0,0 UV-I 32 W/m 0,0 km/h (0 Bft)
24.07.2014 06:14 15,5 C 13,9 C 93 % 1014,8 hPa 0,0 l/m 2 min 0 min 0,0 UV-I 34 W/m 0,0 km/h (0 Bft)
24.07.2014 06:16 15,5 C 13,9 C 93 % 1014,8 hPa 0,0 l/m 2 min 0 min 0,0 UV-I 36 W/m 0,0 km/h (0 Bft)
24.07.2014 06:18 15,5 C 13,9 C 93 % 1014,8 hPa 0,0 l/m 2 min 0 min 0,0 UV-I 39 W/m 0,0 km/h (0 Bft)
24.07.2014 06:20 15,5 C 13,9 C 93 % 1014,8 hPa 0,0 l/m 2 min 0 min 0,0 UV-I 43 W/m 0,0 km/h (0 Bft)
24.07.2014 06:22 15,6 C 13,9 C 93 % 1014,7 hPa 0,0 l/m 2 min 0 min 0,0 UV-I 46 W/m 0,0 km/h (0 Bft)
24.07.2014 06:24 15,6 C 13,9 C 93 % 1014,8 hPa 0,0 l/m 2 min 0 min 0,0 UV-I 50 W/m 0,0 km/h (0 Bft)
24.07.2014 06:26 15,6 C 13,9 C 93 % 1014,8 hPa 0,0 l/m 2 min 0 min 0,0 UV-I 54 W/m 0,0 km/h (0 Bft)
24.07.2014 06:28 15,7 C 14,4 C 93 % 1014,8 hPa 0,0 l/m 2 min 0 min 0,0 UV-I 58 W/m 0,0 km/h (0 Bft)
24.07.2014 06:30 15,8 C 14,4 C 95 % 1014,8 hPa 0,0 l/m 2 min 0 min 0,0 UV-I 62 W/m 0,0 km/h (0 Bft)
24.07.2014 06:32 15,9 C 14,4 C 93 % 1014,8 hPa 0,0 l/m 2 min 0 min 0,0 UV-I 67 W/m 0,0 km/h (0 Bft)
24.07.2014 06:34 15,9 C 14,4 C 92 % 1014,8 hPa 0,0 l/m 2 min 0 min 0,0 UV-I 71 W/m 0,0 km/h (0 Bft)
24.07.2014 06:36 16,0 C 14,4 C 92 % 1014,8 hPa 0,0 l/m 2 min 0 min 0,0 UV-I 75 W/m 0,0 km/h (0 Bft)
24.07.2014 06:38 16,0 C 14,4 C 92 % 1014,8 hPa 0,0 l/m 2 min 0 min 0,0 UV-I 79 W/m 0,0 km/h (0 Bft)
24.07.2014 06:40 16,0 C 14,4 C 92 % 1014,8 hPa 0,0 l/m 2 min 0 min 0,0 UV-I 83 W/m 0,0 km/h (0 Bft)
24.07.2014 06:42 16,0 C 14,4 C 92 % 1014,8 hPa 0,0 l/m 2 min 0 min 0,0 UV-I 87 W/m 0,0 km/h (0 Bft)
24.07.2014 06:44 16,0 C 14,4 C 92 % 1014,8 hPa 0,0 l/m 2 min 0 min 0,0 UV-I 91 W/m 0,0 km/h (0 Bft)
24.07.2014 06:46 16,0 C 14,4 C 92 % 1014,8 hPa 0,0 l/m 2 min 0 min 0,0 UV-I 96 W/m 0,0 km/h (0 Bft)
24.07.2014 06:48 16,1 C 14,4 C 92 % 1014,8 hPa 0,0 l/m 2 min 0 min 0,0 UV-I 100 W/m 0,0 km/h (0 Bft)
24.07.2014 06:50 16,1 C 14,4 C 92 % 1014,8 hPa 0,0 l/m 2 min 0 min 0,0 UV-I 105 W/m 0,0 km/h (0 Bft)
24.07.2014 06:52 16,1 C 14,4 C 92 % 1014,8 hPa 0,0 l/m 2 min 0 min 0,0 UV-I 111 W/m 0,0 km/h (0 Bft)
24.07.2014 06:54 16,2 C 14,4 C 92 % 1014,8 hPa 0,0 l/m 2 min 0 min 0,0 UV-I 117 W/m 0,0 km/h (0 Bft)
24.07.2014 06:56 16,2 C 14,4 C 92 % 1014,9 hPa 0,0 l/m 2 min 0 min 0,0 UV-I 123 W/m 0,0 km/h (0 Bft)
24.07.2014 06:58 16,3 C 14,4 C 92 % 1014,8 hPa 0,0 l/m 2 min 0 min 0,0 UV-I 127 W/m 0,0 km/h (0 Bft)
24.07.2014 07:00 16,3 C 14,4 C 92 % 1014,9 hPa 0,0 l/m 2 min 0 min 0,0 UV-I 131 W/m 0,0 km/h (0 Bft)
24.07.2014 07:02 16,4 C 15,0 C 92 % 1014,9 hPa 0,0 l/m 2 min 0 min 0,0 UV-I 134 W/m 0,0 km/h (0 Bft)
24.07.2014 07:04 16,4 C 15,0 C 92 % 1014,8 hPa 0,0 l/m 2 min 0 min 0,0 UV-I 127 W/m 2,1 km/h (1 Bft)
24.07.2014 07:06 16,7 C 15,0 C 91 % 1014,8 hPa 0,0 l/m 2 min 0 min 0,0 UV-I 126 W/m 0,0 km/h (0 Bft)
24.07.2014 07:08 16,8 C 15,6 C 90 % 1014,9 hPa 0,0 l/m 2 min 0 min 0,0 UV-I 123 W/m 2,1 km/h (1 Bft)
24.07.2014 07:10 17,1 C 15,6 C 90 % 1014,8 hPa 0,0 l/m 2 min 0 min 0,0 UV-I 132 W/m 0,0 km/h (0 Bft)
24.07.2014 07:12 17,2 C 15,6 C 89 % 1014,8 hPa 0,0 l/m 2 min 0 min 0,0 UV-I 103 W/m 0,0 km/h (0 Bft)
24.07.2014 07:14 17,4 C 16,1 C 88 % 1014,8 hPa 0,0 l/m 2 min 0 min 0,0 UV-I 143 W/m 8,4 km/h (2 Bft)
24.07.2014 07:16 17,5 C 16,1 C 87 % 1014,9 hPa 0,0 l/m 2 min 0 min 0,0 UV-I 162 W/m 6,3 km/h (2 Bft)
24.07.2014 07:18 17,6 C 16,1 C 87 % 1014,9 hPa 0,0 l/m 2 min 0 min 0,0 UV-I 154 W/m 2,1 km/h (1 Bft)
24.07.2014 07:20 17,8 C 16,1 C 87 % 1014,9 hPa 0,0 l/m 2 min 0 min 0,0 UV-I 141 W/m 0,0 km/h (0 Bft)
24.07.2014 07:22 17,9 C 16,1 C 86 % 1014,9 hPa 0,0 l/m 2 min 0 min 0,0 UV-I 122 W/m 0,0 km/h (0 Bft)
24.07.2014 07:24 17,9 C 16,1 C 86 % 1015,0 hPa 0,0 l/m 0 min 0 min 0,0 UV-I 105 W/m 0,0 km/h (0 Bft)
24.07.2014 07:26 18,1 C 16,7 C 85 % 1014,9 hPa 0,0 l/m 0 min 0 min 0,0 UV-I 97 W/m 0,0 km/h (0 Bft)
24.07.2014 07:28 18,1 C 16,7 C 85 % 1015,0 hPa 0,0 l/m 0 min 0 min 0,0 UV-I 103 W/m 8,4 km/h (2 Bft)
24.07.2014 07:30 18,1 C 16,7 C 85 % 1015,0 hPa 0,0 l/m 2 min 0 min 0,0 UV-I 116 W/m 4,2 km/h (1 Bft)
24.07.2014 07:32 18,1 C 16,7 C 85 % 1015,0 hPa 0,0 l/m 0 min 0 min 0,0 UV-I 108 W/m 0,0 km/h (0 Bft)
24.07.2014 07:34 18,2 C 16,7 C 85 % 1015,1 hPa 0,0 l/m 0 min 0 min 0,0 UV-I 101 W/m 8,4 km/h (2 Bft)
24.07.2014 07:36 18,2 C 16,7 C 84 % 1015,1 hPa 0,0 l/m 0 min 0 min 0,0 UV-I 104 W/m 6,3 km/h (2 Bft)
24.07.2014 07:38 18,3 C 16,7 C 84 % 1015,1 hPa 0,0 l/m 0 min 0 min 0,0 UV-I 100 W/m 8,4 km/h (2 Bft)
24.07.2014 07:40 18,3 C 16,7 C 84 % 1015,1 hPa 0,0 l/m 0 min 0 min 0,0 UV-I 106 W/m 4,2 km/h (1 Bft)
24.07.2014 07:42 18,4 C 16,7 C 84 % 1015,1 hPa 0,0 l/m 0 min 0 min 0,0 UV-I 123 W/m 0,0 km/h (0 Bft)
24.07.2014 07:44 18,4 C 16,7 C 84 % 1015,1 hPa 0,0 l/m 2 min 0 min 0,0 UV-I 140 W/m 16,7 km/h (3 Bft)
24.07.2014 07:46 18,4 C 16,7 C 84 % 1015,1 hPa 0,0 l/m 2 min 0 min 0,0 UV-I 146 W/m 14,6 km/h (3 Bft)
24.07.2014 07:48 18,5 C 16,7 C 83 % 1015,1 hPa 0,0 l/m 2 min 0 min 0,0 UV-I 164 W/m 14,6 km/h (3 Bft)
24.07.2014 07:50 18,6 C 17,2 C 83 % 1015,1 hPa 0,0 l/m 2 min 0 min 0,0 UV-I 156 W/m 8,4 km/h (2 Bft)
24.07.2014 07:52 18,6 C 17,2 C 83 % 1015,1 hPa 0,0 l/m 0 min 0 min 0,0 UV-I 142 W/m 14,6 km/h (3 Bft)
24.07.2014 07:54 18,7 C 17,2 C 82 % 1015,2 hPa 0,0 l/m 0 min 0 min 0,0 UV-I 134 W/m 18,8 km/h (3 Bft)
24.07.2014 07:56 18,7 C 17,2 C 82 % 1015,1 hPa 0,0 l/m 0 min 0 min 0,0 UV-I 138 W/m 12,6 km/h (3 Bft)
24.07.2014 07:58 18,8 C 17,2 C 81 % 1015,1 hPa 0,0 l/m 2 min 0 min 0,0 UV-I 151 W/m 23,0 km/h (4 Bft)
24.07.2014 08:00 18,8 C 17,2 C 81 % 1015,1 hPa 0,0 l/m 2 min 0 min 0,0 UV-I 159 W/m 14,6 km/h (3 Bft)
24.07.2014 08:02 18,8 C 17,2 C 82 % 1015,1 hPa 0,0 l/m 2 min 0 min 0,0 UV-I 202 W/m 14,6 km/h (3 Bft)
24.07.2014 08:04 18,8 C 17,2 C 81 % 1015,1 hPa 0,0 l/m 2 min 0 min 0,0 UV-I 185 W/m 14,6 km/h (3 Bft)
24.07.2014 08:06 18,8 C 17,2 C 81 % 1015,1 hPa 0,0 l/m 2 min 0 min 0,0 UV-I 208 W/m 14,6 km/h (3 Bft)
24.07.2014 08:08 18,9 C 17,2 C 81 % 1015,1 hPa 0,0 l/m 2 min 0 min 0,0 UV-I 259 W/m 10,5 km/h (2 Bft)
24.07.2014 08:10 19,0 C 17,2 C 81 % 1015,1 hPa 0,0 l/m 2 min 0 min 0,0 UV-I 281 W/m 8,4 km/h (2 Bft)
24.07.2014 08:12 19,2 C 17,8 C 80 % 1015,1 hPa 0,0 l/m 2 min 0 min 0,0 UV-I 266 W/m 12,6 km/h (3 Bft)
24.07.2014 08:14 19,3 C 17,8 C 79 % 1015,1 hPa 0,0 l/m 2 min 0 min 0,0 UV-I 273 W/m 14,6 km/h (3 Bft)
24.07.2014 08:16 19,3 C 17,8 C 80 % 1015,1 hPa 0,0 l/m 2 min 0 min 0,0 UV-I 253 W/m 14,6 km/h (3 Bft)
24.07.2014 08:18 19,5 C 17,8 C 79 % 1015,1 hPa 0,0 l/m 2 min 0 min 0,0 UV-I 294 W/m 25,1 km/h (4 Bft)
24.07.2014 08:20 19,6 C 18,3 C 79 % 1015,2 hPa 0,0 l/m 2 min 0 min 0,0 UV-I 273 W/m 18,8 km/h (3 Bft)
24.07.2014 08:22 19,7 C 18,3 C 79 % 1015,1 hPa 0,0 l/m 2 min 0 min 0,0 UV-I 294 W/m 18,8 km/h (3 Bft)
24.07.2014 08:24 19,8 C 18,3 C 78 % 1015,1 hPa 0,0 l/m 2 min 0 min 0,0 UV-I 286 W/m 16,7 km/h (3 Bft)
24.07.2014 08:26 19,8 C 18,3 C 78 % 1015,2 hPa 0,0 l/m 2 min 0 min 0,0 UV-I 290 W/m 16,7 km/h (3 Bft)
24.07.2014 08:28 19,9 C 18,3 C 78 % 1015,1 hPa 0,0 l/m 2 min 0 min 0,0 UV-I 341 W/m 12,6 km/h (3 Bft)
24.07.2014 08:30 20,0 C 18,9 C 78 % 1015,1 hPa 0,0 l/m 2 min 0 min 0,0 UV-I 303 W/m 10,5 km/h (2 Bft)
24.07.2014 08:32 20,1 C 18,9 C 77 % 1015,1 hPa 0,0 l/m 2 min 0 min 0,0 UV-I 287 W/m 10,5 km/h (2 Bft)
24.07.2014 08:34 20,2 C 18,9 C 77 % 1015,1 hPa 0,0 l/m 2 min 0 min 0,0 UV-I 322 W/m 2,1 km/h (1 Bft)
24.07.2014 08:36 20,2 C 18,9 C 76 % 1015,1 hPa 0,0 l/m 2 min 0 min 0,0 UV-I 347 W/m 16,7 km/h (3 Bft)
24.07.2014 08:38 20,3 C 18,9 C 76 % 1015,1 hPa 0,0 l/m 2 min 0 min 0,4 UV-I 369 W/m 16,7 km/h (3 Bft)
24.07.2014 08:40 20,4 C 19,4 C 76 % 1015,1 hPa 0,0 l/m 2 min 0 min 0,5 UV-I 406 W/m 16,7 km/h (3 Bft)
24.07.2014 08:42 20,6 C 19,4 C 76 % 1015,0 hPa 0,0 l/m 2 min 0 min 0,6 UV-I 434 W/m 16,7 km/h (3 Bft)
24.07.2014 08:44 20,7 C 19,4 C 75 % 1015,0 hPa 0,0 l/m 2 min 0 min 0,6 UV-I 443 W/m 16,7 km/h (3 Bft)
24.07.2014 08:46 20,9 C 19,4 C 76 % 1014,9 hPa 0,0 l/m 2 min 0 min 0,7 UV-I 418 W/m 12,6 km/h (3 Bft)
24.07.2014 08:48 21,1 C 20,0 C 74 % 1015,0 hPa 0,0 l/m 2 min 0 min 0,7 UV-I 421 W/m 16,7 km/h (3 Bft)
24.07.2014 08:50 21,2 C 20,0 C 74 % 1015,0 hPa 0,0 l/m 2 min 0 min 0,7 UV-I 420 W/m 12,6 km/h (3 Bft)
24.07.2014 08:52 21,3 C 20,0 C 73 % 1015,0 hPa 0,0 l/m 2 min 0 min 0,7 UV-I 431 W/m 14,6 km/h (3 Bft)
24.07.2014 08:54 21,4 C 20,0 C 74 % 1014,9 hPa 0,0 l/m 2 min 0 min 0,8 UV-I 442 W/m 14,6 km/h (3 Bft)
24.07.2014 08:56 21,4 C 20,0 C 72 % 1014,9 hPa 0,0 l/m 2 min 0 min 0,6 UV-I 378 W/m 12,6 km/h (3 Bft)
24.07.2014 08:58 21,3 C 20,0 C 73 % 1014,9 hPa 0,0 l/m 0 min 0 min 0,3 UV-I 174 W/m 14,6 km/h (3 Bft)
24.07.2014 09:00 21,2 C 20,0 C 74 % 1014,9 hPa 0,0 l/m 2 min 0 min 0,6 UV-I 286 W/m 10,5 km/h (2 Bft)
24.07.2014 09:02 21,2 C 20,0 C 74 % 1014,9 hPa 0,0 l/m 2 min 0 min 0,9 UV-I 365 W/m 12,6 km/h (3 Bft)
24.07.2014 09:04 21,4 C 20,0 C 74 % 1014,9 hPa 0,0 l/m 2 min 0 min 0,9 UV-I 465 W/m 12,6 km/h (3 Bft)
24.07.2014 09:06 21,5 C 20,0 C 73 % 1014,9 hPa 0,0 l/m 2 min 0 min 0,8 UV-I 413 W/m 16,7 km/h (3 Bft)
24.07.2014 09:08 21,6 C 20,0 C 72 % 1015,0 hPa 0,0 l/m 2 min 0 min 0,7 UV-I 332 W/m 23,0 km/h (4 Bft)
24.07.2014 09:10 21,6 C 20,0 C 72 % 1014,9 hPa 0,0 l/m 2 min 0 min 0,9 UV-I 320 W/m 18,8 km/h (3 Bft)
24.07.2014 09:12 21,6 C 20,6 C 71 % 1014,9 hPa 0,0 l/m 2 min 0 min 1,0 UV-I 472 W/m 10,5 km/h (2 Bft)
24.07.2014 09:14 21,7 C 20,6 C 72 % 1014,9 hPa 0,0 l/m 2 min 0 min 1,1 UV-I 490 W/m 16,7 km/h (3 Bft)
24.07.2014 09:16 21,9 C 20,6 C 72 % 1014,9 hPa 0,0 l/m 2 min 0 min 1,2 UV-I 518 W/m 20,9 km/h (4 Bft)
24.07.2014 09:18 22,1 C 20,6 C 73 % 1014,9 hPa 0,0 l/m 2 min 0 min 1,3 UV-I 536 W/m 20,9 km/h (4 Bft)
24.07.2014 09:20 22,4 C 21,1 C 71 % 1014,9 hPa 0,0 l/m 2 min 0 min 1,3 UV-I 546 W/m 14,6 km/h (3 Bft)
24.07.2014 09:22 22,4 C 21,1 C 69 % 1014,9 hPa 0,0 l/m 2 min 0 min 1,3 UV-I 545 W/m 16,7 km/h (3 Bft)
24.07.2014 09:24 22,5 C 21,1 C 71 % 1014,9 hPa 0,0 l/m 2 min 0 min 1,3 UV-I 529 W/m 16,7 km/h (3 Bft)
24.07.2014 09:26 22,7 C 21,1 C 70 % 1014,9 hPa 0,0 l/m 2 min 0 min 1,4 UV-I 542 W/m 16,7 km/h (3 Bft)
24.07.2014 09:28 22,8 C 21,1 C 70 % 1015,0 hPa 0,0 l/m 2 min 0 min 1,4 UV-I 542 W/m 18,8 km/h (3 Bft)
24.07.2014 09:30 22,9 C 21,1 C 68 % 1015,0 hPa 0,0 l/m 2 min 0 min 1,4 UV-I 538 W/m 23,0 km/h (4 Bft)
24.07.2014 09:32 22,9 C 21,1 C 67 % 1015,0 hPa 0,0 l/m 2 min 0 min 1,4 UV-I 494 W/m 20,9 km/h (4 Bft)
24.07.2014 09:34 23,0 C 21,1 C 68 % 1014,9 hPa 0,0 l/m 2 min 0 min 1,4 UV-I 485 W/m 23,0 km/h (4 Bft)
24.07.2014 09:36 23,1 C 21,1 C 68 % 1014,9 hPa 0,0 l/m 2 min 0 min 1,5 UV-I 533 W/m 20,9 km/h (4 Bft)
24.07.2014 09:38 23,0 C 21,7 C 67 % 1014,9 hPa 0,0 l/m 2 min 0 min 1,5 UV-I 502 W/m 20,9 km/h (4 Bft)
24.07.2014 09:40 22,9 C 21,7 C 66 % 1014,9 hPa 0,0 l/m 2 min 0 min 1,6 UV-I 521 W/m 25,1 km/h (4 Bft)
24.07.2014 09:42 22,9 C 21,7 C 66 % 1014,9 hPa 0,0 l/m 2 min 0 min 1,6 UV-I 554 W/m 29,3 km/h (5 Bft)
24.07.2014 09:44 23,0 C 21,7 C 66 % 1014,9 hPa 0,0 l/m 2 min 0 min 1,7 UV-I 558 W/m 25,1 km/h (4 Bft)
24.07.2014 09:46 23,1 C 21,7 C 66 % 1014,9 hPa 0,0 l/m 2 min 0 min 1,7 UV-I 530 W/m 20,9 km/h (4 Bft)
24.07.2014 09:48 23,2 C 22,2 C 66 % 1014,9 hPa 0,0 l/m 2 min 0 min 1,7 UV-I 558 W/m 27,2 km/h (4 Bft)
24.07.2014 09:50 23,2 C 22,8 C 65 % 1014,9 hPa 0,0 l/m 2 min 0 min 1,8 UV-I 573 W/m 29,3 km/h (5 Bft)
24.07.2014 09:52 23,2 C 22,8 C 66 % 1014,9 hPa 0,0 l/m 2 min 0 min 1,9 UV-I 579 W/m 29,3 km/h (5 Bft)
24.07.2014 09:54 23,3 C 23,9 C 66 % 1014,9 hPa 0,0 l/m 2 min 0 min 1,7 UV-I 493 W/m 25,1 km/h (4 Bft)
24.07.2014 09:56 23,4 C 25,0 C 64 % 1014,9 hPa 0,0 l/m 2 min 0 min 1,6 UV-I 447 W/m 23,0 km/h (4 Bft)
24.07.2014 09:58 23,3 C 25,6 C 64 % 1014,8 hPa 0,0 l/m 2 min 0 min 1,7 UV-I 485 W/m 16,7 km/h (3 Bft)
24.07.2014 10:00 23,4 C 25,6 C 64 % 1014,8 hPa 0,0 l/m 2 min 0 min 1,6 UV-I 438 W/m 23,0 km/h (4 Bft)
24.07.2014 10:02 23,4 C 25,6 C 65 % 1014,8 hPa 0,0 l/m 2 min 0 min 1,6 UV-I 414 W/m 14,6 km/h (3 Bft)
24.07.2014 10:04 23,5 C 25,6 C 65 % 1014,8 hPa 0,0 l/m 2 min 0 min 1,7 UV-I 412 W/m 16,7 km/h (3 Bft)
24.07.2014 10:06 23,5 C 25,6 C 64 % 1014,9 hPa 0,0 l/m 2 min 0 min 1,8 UV-I 457 W/m 16,7 km/h (3 Bft)
24.07.2014 10:08 23,6 C 26,1 C 65 % 1014,8 hPa 0,0 l/m 2 min 0 min 2,0 UV-I 563 W/m 20,9 km/h (4 Bft)
24.07.2014 10:10 23,7 C 27,2 C 64 % 1014,8 hPa 0,0 l/m 2 min 0 min 2,1 UV-I 587 W/m 29,3 km/h (5 Bft)
24.07.2014 10:12 23,8 C 27,2 C 64 % 1014,8 hPa 0,0 l/m 2 min 0 min 2,1 UV-I 566 W/m 27,2 km/h (4 Bft)
24.07.2014 10:14 23,9 C 27,8 C 64 % 1014,8 hPa 0,0 l/m 2 min 0 min 2,2 UV-I 600 W/m 16,7 km/h (3 Bft)
24.07.2014 10:16 24,0 C 28,3 C 63 % 1014,8 hPa 0,0 l/m 2 min 0 min 2,3 UV-I 616 W/m 18,8 km/h (3 Bft)
24.07.2014 10:18 24,1 C 28,9 C 63 % 1014,8 hPa 0,0 l/m 2 min 0 min 2,4 UV-I 645 W/m 18,8 km/h (3 Bft)
24.07.2014 10:20 24,3 C 28,9 C 65 % 1014,8 hPa 0,0 l/m 2 min 0 min 2,5 UV-I 657 W/m 14,6 km/h (3 Bft)
24.07.2014 10:22 24,4 C 28,3 C 60 % 1014,7 hPa 0,0 l/m 2 min 0 min 2,5 UV-I 656 W/m 16,7 km/h (3 Bft)
24.07.2014 10:24 24,4 C 29,4 C 61 % 1014,8 hPa 0,0 l/m 2 min 0 min 2,5 UV-I 653 W/m 23,0 km/h (4 Bft)
24.07.2014 10:26 24,5 C 30,0 C 62 % 1014,8 hPa 0,0 l/m 2 min 0 min 2,6 UV-I 646 W/m 27,2 km/h (4 Bft)
24.07.2014 10:28 24,6 C 30,0 C 60 % 1014,8 hPa 0,0 l/m 2 min 0 min 2,6 UV-I 638 W/m 14,6 km/h (3 Bft)
24.07.2014 10:30 24,5 C 29,4 C 58 % 1014,8 hPa 0,0 l/m 2 min 0 min 2,6 UV-I 648 W/m 27,2 km/h (4 Bft)
24.07.2014 10:32 24,4 C 29,4 C 58 % 1014,8 hPa 0,0 l/m 2 min 0 min 2,7 UV-I 653 W/m 27,2 km/h (4 Bft)
24.07.2014 10:34 24,5 C 29,4 C 59 % 1014,7 hPa 0,0 l/m 2 min 0 min 2,7 UV-I 655 W/m 18,8 km/h (3 Bft)
24.07.2014 10:36 24,4 C 28,9 C 59 % 1014,8 hPa 0,0 l/m 2 min 0 min 2,7 UV-I 657 W/m 27,2 km/h (4 Bft)
24.07.2014 10:38 24,4 C 28,3 C 59 % 1014,8 hPa 0,0 l/m 2 min 0 min 2,8 UV-I 655 W/m 20,9 km/h (4 Bft)
24.07.2014 10:40 24,4 C 28,3 C 59 % 1014,7 hPa 0,0 l/m 2 min 0 min 2,8 UV-I 661 W/m 23,0 km/h (4 Bft)
24.07.2014 10:42 24,6 C 27,2 C 59 % 1014,7 hPa 0,0 l/m 2 min 0 min 2,8 UV-I 665 W/m 25,1 km/h (4 Bft)
24.07.2014 10:44 24,6 C 26,7 C 58 % 1014,7 hPa 0,0 l/m 2 min 0 min 2,9 UV-I 669 W/m 18,8 km/h (3 Bft)
24.07.2014 10:46 24,8 C 26,1 C 58 % 1014,7 hPa 0,0 l/m 2 min 0 min 2,9 UV-I 673 W/m 16,7 km/h (3 Bft)
24.07.2014 10:48 24,9 C 25,6 C 58 % 1014,8 hPa 0,0 l/m 2 min 0 min 2,9 UV-I 673 W/m 20,9 km/h (4 Bft)
24.07.2014 10:50 24,9 C 25,6 C 57 % 1014,8 hPa 0,0 l/m 2 min 0 min 2,9 UV-I 641 W/m 23,0 km/h (4 Bft)
24.07.2014 10:52 24,8 C 25,0 C 57 % 1014,8 hPa 0,0 l/m 2 min 0 min 2,9 UV-I 634 W/m 27,2 km/h (4 Bft)
24.07.2014 10:54 24,7 C 25,6 C 57 % 1014,7 hPa 0,0 l/m 2 min 0 min 3,0 UV-I 659 W/m 18,8 km/h (3 Bft)
24.07.2014 10:56 24,6 C 25,6 C 58 % 1014,7 hPa 0,0 l/m 2 min 0 min 3,1 UV-I 666 W/m 20,9 km/h (4 Bft)
24.07.2014 10:58 24,7 C 26,1 C 58 % 1014,7 hPa 0,0 l/m 2 min 0 min 3,1 UV-I 674 W/m 27,2 km/h (4 Bft)
24.07.2014 11:00 24,9 C 26,1 C 58 % 1014,8 hPa 0,0 l/m 2 min 0 min 3,1 UV-I 691 W/m 29,3 km/h (5 Bft)
24.07.2014 11:02 24,9 C 26,1 C 56 % 1014,7 hPa 0,0 l/m 2 min 0 min 3,2 UV-I 693 W/m 20,9 km/h (4 Bft)
24.07.2014 11:04 24,9 C 26,7 C 58 % 1014,8 hPa 0,0 l/m 2 min 0 min 3,2 UV-I 693 W/m 23,0 km/h (4 Bft)
24.07.2014 11:06 24,8 C 26,7 C 57 % 1014,8 hPa 0,0 l/m 2 min 0 min 3,2 UV-I 694 W/m 33,5 km/h (5 Bft)
24.07.2014 11:08 24,9 C 27,2 C 57 % 1014,7 hPa 0,0 l/m 2 min 0 min 3,3 UV-I 696 W/m 23,0 km/h (4 Bft)
24.07.2014 11:10 25,0 C 27,2 C 58 % 1014,7 hPa 0,0 l/m 2 min 0 min 3,3 UV-I 700 W/m 18,8 km/h (3 Bft)
24.07.2014 11:12 25,1 C 27,2 C 58 % 1014,7 hPa 0,0 l/m 2 min 0 min 3,3 UV-I 704 W/m 29,3 km/h (5 Bft)
24.07.2014 11:14 25,1 C 27,8 C 58 % 1014,6 hPa 0,0 l/m 2 min 0 min 3,4 UV-I 681 W/m 18,8 km/h (3 Bft)
24.07.2014 11:16 25,2 C 27,8 C 56 % 1014,7 hPa 0,0 l/m 2 min 0 min 3,4 UV-I 687 W/m 25,1 km/h (4 Bft)
24.07.2014 11:18 25,1 C 27,8 C 56 % 1014,6 hPa 0,0 l/m 2 min 0 min 3,4 UV-I 710 W/m 29,3 km/h (5 Bft)
24.07.2014 11:20 25,1 C 27,2 C 56 % 1014,6 hPa 0,0 l/m 2 min 0 min 3,5 UV-I 714 W/m 23,0 km/h (4 Bft)
24.07.2014 11:22 25,1 C 27,2 C 56 % 1014,7 hPa 0,0 l/m 2 min 0 min 3,5 UV-I 712 W/m 18,8 km/h (3 Bft)
24.07.2014 11:24 25,1 C 27,2 C 57 % 1014,7 hPa 0,0 l/m 2 min 0 min 3,6 UV-I 717 W/m 31,4 km/h (5 Bft)
24.07.2014 11:26 25,2 C 27,2 C 57 % 1014,7 hPa 0,0 l/m 2 min 0 min 3,6 UV-I 717 W/m 29,3 km/h (5 Bft)
24.07.2014 11:28 25,3 C 27,2 C 57 % 1014,8 hPa 0,0 l/m 2 min 0 min 3,6 UV-I 722 W/m 23,0 km/h (4 Bft)
24.07.2014 11:30 25,4 C 26,7 C 56 % 1014,7 hPa 0,0 l/m 2 min 0 min 3,7 UV-I 725 W/m 20,9 km/h (4 Bft)
24.07.2014 11:32 25,7 C 26,1 C 57 % 1014,7 hPa 0,0 l/m 2 min 0 min 3,7 UV-I 729 W/m 20,9 km/h (4 Bft)
24.07.2014 11:34 25,8 C 26,1 C 56 % 1014,7 hPa 0,0 l/m 2 min 0 min 3,7 UV-I 732 W/m 23,0 km/h (4 Bft)
24.07.2014 11:36 25,7 C 26,1 C 57 % 1014,7 hPa 0,0 l/m 2 min 0 min 3,8 UV-I 734 W/m 23,0 km/h (4 Bft)
24.07.2014 11:38 25,9 C 26,7 C 58 % 1014,6 hPa 0,0 l/m 2 min 0 min 3,8 UV-I 736 W/m 18,8 km/h (3 Bft)
24.07.2014 11:40 26,2 C 28,3 C 58 % 1014,6 hPa 0,0 l/m 2 min 0 min 3,8 UV-I 737 W/m 14,6 km/h (3 Bft)
24.07.2014 11:42 26,2 C 29,4 C 55 % 1014,7 hPa 0,0 l/m 2 min 0 min 3,8 UV-I 737 W/m 35,6 km/h (5 Bft)
24.07.2014 11:44 26,1 C 30,0 C 57 % 1014,7 hPa 0,0 l/m 2 min 0 min 3,9 UV-I 742 W/m 23,0 km/h (4 Bft)
24.07.2014 11:46 26,2 C 29,4 C 56 % 1014,7 hPa 0,0 l/m 2 min 0 min 3,9 UV-I 744 W/m 27,2 km/h (4 Bft)
24.07.2014 11:48 25,9 C 29,4 C 56 % 1014,7 hPa 0,0 l/m 2 min 0 min 3,9 UV-I 745 W/m 23,0 km/h (4 Bft)
24.07.2014 11:50 26,0 C 30,0 C 58 % 1014,6 hPa 0,0 l/m 2 min 0 min 4,0 UV-I 745 W/m 18,8 km/h (3 Bft)
24.07.2014 11:52 26,2 C 30,6 C 56 % 1014,6 hPa 0,0 l/m 2 min 0 min 4,0 UV-I 747 W/m 20,9 km/h (4 Bft)
24.07.2014 11:54 26,1 C 30,6 C 54 % 1014,7 hPa 0,0 l/m 2 min 0 min 4,0 UV-I 751 W/m 20,9 km/h (4 Bft)
24.07.2014 11:56 26,1 C 30,6 C 55 % 1014,7 hPa 0,0 l/m 2 min 0 min 4,0 UV-I 757 W/m 23,0 km/h (4 Bft)
24.07.2014 11:58 26,0 C 30,0 C 56 % 1014,6 hPa 0,0 l/m 2 min 0 min 4,1 UV-I 756 W/m 20,9 km/h (4 Bft)
24.07.2014 12:00 25,9 C 29,4 C 57 % 1014,6 hPa 0,0 l/m 2 min 0 min 4,1 UV-I 756 W/m 16,7 km/h (3 Bft)
24.07.2014 12:02 25,8 C 29,4 C 56 % 1014,6 hPa 0,0 l/m 2 min 0 min 4,1 UV-I 757 W/m 27,2 km/h (4 Bft)
24.07.2014 12:06 26,0 C 30,0 C 60 % 1014,5 hPa 0,0 l/m 2 min 0 min 4,2 UV-I 756 W/m 16,7 km/h (3 Bft)
24.07.2014 12:08 26,1 C 29,4 C 56 % 1014,5 hPa 0,0 l/m 2 min 0 min 4,1 UV-I 753 W/m 20,9 km/h (4 Bft)
24.07.2014 12:10 26,0 C 28,9 C 55 % 1014,5 hPa 0,0 l/m 2 min 0 min 4,1 UV-I 759 W/m 20,9 km/h (4 Bft)
24.07.2014 12:12 26,1 C 29,4 C 57 % 1014,6 hPa 0,0 l/m 2 min 0 min 2,6 UV-I 761 W/m 23,0 km/h (4 Bft)
24.07.2014 12:14 26,3 C 30,6 C 58 % 1014,6 hPa 0,0 l/m 2 min 0 min 4,2 UV-I 761 W/m 16,7 km/h (3 Bft)
24.07.2014 12:16 26,6 C 30,6 C 57 % 1014,6 hPa 0,0 l/m 2 min 0 min 4,3 UV-I 746 W/m 18,8 km/h (3 Bft)
24.07.2014 12:18 26,6 C 30,6 C 56 % 1014,6 hPa 0,0 l/m 2 min 0 min 4,3 UV-I 658 W/m 23,0 km/h (4 Bft)
24.07.2014 12:20 26,4 C 29,4 C 54 % 1014,6 hPa 0,0 l/m 2 min 0 min 4,3 UV-I 537 W/m 20,9 km/h (4 Bft)
24.07.2014 12:22 26,4 C 30,0 C 55 % 1014,5 hPa 0,0 l/m 0 min 0 min 4,3 UV-I 388 W/m 18,8 km/h (3 Bft)
24.07.2014 12:24 26,5 C 30,6 C 57 % 1014,5 hPa 0,0 l/m 0 min 0 min 4,4 UV-I 142 W/m 20,9 km/h (4 Bft)
24.07.2014 12:26 26,8 C 31,1 C 56 % 1014,5 hPa 0,0 l/m 0 min 0 min 4,3 UV-I 93 W/m 14,6 km/h (3 Bft)
24.07.2014 12:28 26,9 C 30,6 C 56 % 1014,6 hPa 0,0 l/m 0 min 0 min 4,3 UV-I 91 W/m 23,0 km/h (4 Bft)
24.07.2014 12:30 27,1 C 30,0 C 55 % 1014,5 hPa 0,0 l/m 0 min 0 min 4,3 UV-I 131 W/m 23,0 km/h (4 Bft)
24.07.2014 12:32 27,2 C 30,6 C 56 % 1014,5 hPa 0,0 l/m 0 min 0 min 4,3 UV-I 192 W/m 16,7 km/h (3 Bft)
24.07.2014 12:34 27,1 C 30,6 C 56 % 1014,5 hPa 0,0 l/m 0 min 0 min 4,3 UV-I 366 W/m 25,1 km/h (4 Bft)
24.07.2014 12:36 27,0 C 30,6 C 54 % 1014,4 hPa 0,0 l/m 2 min 0 min 4,4 UV-I 648 W/m 27,2 km/h (4 Bft)
24.07.2014 12:38 26,8 C 29,4 C 54 % 1014,6 hPa 0,0 l/m 2 min 0 min 4,4 UV-I 739 W/m 33,5 km/h (5 Bft)
24.07.2014 12:40 26,9 C 29,4 C 55 % 1014,5 hPa 0,0 l/m 2 min 0 min 4,5 UV-I 780 W/m 27,2 km/h (4 Bft)
24.07.2014 12:42 26,9 C 29,4 C 55 % 1014,4 hPa 0,0 l/m 2 min 0 min 4,5 UV-I 766 W/m 18,8 km/h (3 Bft)
24.07.2014 12:44 27,1 C 29,4 C 55 % 1014,4 hPa 0,0 l/m 2 min 0 min 4,5 UV-I 789 W/m 20,9 km/h (4 Bft)
24.07.2014 12:46 27,1 C 28,9 C 54 % 1014,4 hPa 0,0 l/m 2 min 0 min 4,5 UV-I 787 W/m 14,6 km/h (3 Bft)
24.07.2014 12:48 26,9 C 28,3 C 54 % 1014,4 hPa 0,0 l/m 2 min 0 min 4,5 UV-I 790 W/m 31,4 km/h (5 Bft)
24.07.2014 12:50 26,7 C 28,3 C 55 % 1014,5 hPa 0,0 l/m 2 min 0 min 4,5 UV-I 786 W/m 20,9 km/h (4 Bft)
24.07.2014 12:52 26,9 C 28,3 C 55 % 1014,4 hPa 0,0 l/m 2 min 0 min 4,6 UV-I 792 W/m 27,2 km/h (4 Bft)
24.07.2014 12:54 26,8 C 28,3 C 56 % 1014,4 hPa 0,0 l/m 2 min 0 min 4,2 UV-I 790 W/m 25,1 km/h (4 Bft)
24.07.2014 12:56 27,0 C 28,3 C 56 % 1014,4 hPa 0,0 l/m 2 min 0 min 2,6 UV-I 792 W/m 25,1 km/h (4 Bft)
24.07.2014 12:58 26,9 C 27,8 C 56 % 1014,4 hPa 0,0 l/m 2 min 0 min 3,0 UV-I 797 W/m 25,1 km/h (4 Bft)
24.07.2014 13:00 27,2 C 28,3 C 55 % 1014,4 hPa 0,0 l/m 2 min 0 min 4,6 UV-I 800 W/m 23,0 km/h (4 Bft)
24.07.2014 13:02 27,3 C 28,3 C 58 % 1014,4 hPa 0,0 l/m 2 min 0 min 4,6 UV-I 799 W/m 20,9 km/h (4 Bft)
24.07.2014 13:04 27,4 C 28,3 C 56 % 1014,3 hPa 0,0 l/m 2 min 0 min 4,6 UV-I 797 W/m 20,9 km/h (4 Bft)
24.07.2014 13:06 27,4 C 27,8 C 54 % 1014,4 hPa 0,0 l/m 2 min 0 min 4,6 UV-I 799 W/m 33,5 km/h (5 Bft)
24.07.2014 13:08 27,2 C 27,8 C 54 % 1014,4 hPa 0,0 l/m 2 min 0 min 4,7 UV-I 806 W/m 27,2 km/h (4 Bft)
24.07.2014 13:10 27,2 C 27,8 C 57 % 1014,3 hPa 0,0 l/m 2 min 0 min 4,7 UV-I 809 W/m 16,7 km/h (3 Bft)
24.07.2014 13:12 27,3 C 27,8 C 55 % 1014,4 hPa 0,0 l/m 2 min 0 min 4,7 UV-I 815 W/m 23,0 km/h (4 Bft)
24.07.2014 13:14 27,3 C 27,8 C 55 % 1014,3 hPa 0,0 l/m 2 min 0 min 4,9 UV-I 832 W/m 18,8 km/h (3 Bft)
24.07.2014 13:16 27,4 C 27,8 C 54 % 1014,2 hPa 0,0 l/m 2 min 0 min 4,8 UV-I 848 W/m 31,4 km/h (5 Bft)
24.07.2014 13:18 27,7 C 28,3 C 53 % 1014,2 hPa 0,0 l/m 2 min 0 min 4,5 UV-I 866 W/m 25,1 km/h (4 Bft)
24.07.2014 13:20 27,6 C 28,3 C 54 % 1014,2 hPa 0,0 l/m 2 min 0 min 3,9 UV-I 880 W/m 20,9 km/h (4 Bft)
24.07.2014 13:22 27,5 C 28,3 C 55 % 1014,2 hPa 0,0 l/m 2 min 0 min 3,2 UV-I 810 W/m 23,0 km/h (4 Bft)
24.07.2014 13:24 27,8 C 28,3 C 53 % 1014,2 hPa 0,0 l/m 2 min 0 min 3,5 UV-I 717 W/m 25,1 km/h (4 Bft)
24.07.2014 13:26 27,8 C 28,3 C 55 % 1014,2 hPa 0,0 l/m 2 min 0 min 4,2 UV-I 681 W/m 25,1 km/h (4 Bft)
24.07.2014 13:28 27,9 C 28,3 C 55 % 1014,1 hPa 0,0 l/m 2 min 0 min 3,8 UV-I 681 W/m 23,0 km/h (4 Bft)
24.07.2014 13:30 27,6 C 27,8 C 53 % 1014,2 hPa 0,0 l/m 2 min 0 min 3,5 UV-I 598 W/m 31,4 km/h (5 Bft)
24.07.2014 13:32 27,4 C 27,8 C 55 % 1014,2 hPa 0,0 l/m 2 min 0 min 3,8 UV-I 617 W/m 33,5 km/h (5 Bft)
24.07.2014 13:34 27,2 C 27,2 C 54 % 1014,2 hPa 0,0 l/m 2 min 0 min 3,4 UV-I 656 W/m 23,0 km/h (4 Bft)
24.07.2014 13:36 26,9 C 27,2 C 53 % 1014,1 hPa 0,0 l/m 2 min 0 min 3,4 UV-I 612 W/m 29,3 km/h (5 Bft)
24.07.2014 13:38 26,7 C 26,7 C 52 % 1014,1 hPa 0,0 l/m 2 min 0 min 3,7 UV-I 649 W/m 31,4 km/h (5 Bft)
24.07.2014 13:40 26,7 C 26,7 C 54 % 1014,1 hPa 0,0 l/m 2 min 0 min 2,9 UV-I 527 W/m 20,9 km/h (4 Bft)
24.07.2014 13:42 26,7 C 26,7 C 54 % 1014,1 hPa 0,0 l/m 2 min 0 min 3,4 UV-I 491 W/m 25,1 km/h (4 Bft)
24.07.2014 13:44 26,7 C 26,7 C 55 % 1014,0 hPa 0,0 l/m 2 min 0 min 3,0 UV-I 512 W/m 18,8 km/h (3 Bft)
24.07.2014 13:46 27,0 C 27,2 C 57 % 1014,0 hPa 0,0 l/m 2 min 0 min 4,0 UV-I 558 W/m 18,8 km/h (3 Bft)
24.07.2014 13:48 27,2 C 27,2 C 53 % 1014,0 hPa 0,0 l/m 2 min 0 min 3,3 UV-I 774 W/m 25,1 km/h (4 Bft)
24.07.2014 13:50 27,1 C 27,2 C 53 % 1014,1 hPa 0,0 l/m 0 min 0 min 2,6 UV-I 381 W/m 20,9 km/h (4 Bft)
24.07.2014 13:52 27,0 C 27,2 C 54 % 1014,0 hPa 0,0 l/m 0 min 0 min 2,7 UV-I 364 W/m 20,9 km/h (4 Bft)
24.07.2014 13:54 27,1 C 27,2 C 54 % 1014,0 hPa 0,0 l/m 2 min 0 min 3,6 UV-I 569 W/m 16,7 km/h (3 Bft)
24.07.2014 13:56 27,1 C 27,2 C 55 % 1014,1 hPa 0,0 l/m 2 min 0 min 3,0 UV-I 670 W/m 23,0 km/h (4 Bft)
24.07.2014 13:58 27,1 C 27,2 C 55 % 1014,1 hPa 0,0 l/m 2 min 0 min 2,9 UV-I 493 W/m 18,8 km/h (3 Bft)
24.07.2014 14:00 26,9 C 26,7 C 52 % 1014,0 hPa 0,0 l/m 0 min 0 min 2,5 UV-I 392 W/m 23,0 km/h (4 Bft)
24.07.2014 14:02 26,9 C 26,7 C 57 % 1014,0 hPa 0,0 l/m 2 min 0 min 2,9 UV-I 487 W/m 29,3 km/h (5 Bft)
24.07.2014 14:04 27,0 C 26,7 C 56 % 1013,9 hPa 0,0 l/m 2 min 0 min 2,5 UV-I 433 W/m 18,8 km/h (3 Bft)
24.07.2014 14:06 27,1 C 27,2 C 56 % 1014,0 hPa 0,0 l/m 2 min 0 min 3,1 UV-I 506 W/m 29,3 km/h (5 Bft)
24.07.2014 14:08 27,1 C 27,2 C 54 % 1014,0 hPa 0,0 l/m 2 min 0 min 2,7 UV-I 445 W/m 23,0 km/h (4 Bft)
24.07.2014 14:10 26,9 C 26,7 C 53 % 1014,0 hPa 0,0 l/m 0 min 0 min 2,3 UV-I 376 W/m 27,2 km/h (4 Bft)
24.07.2014 14:12 26,6 C 26,1 C 54 % 1014,0 hPa 0,0 l/m 0 min 0 min 2,5 UV-I 385 W/m 33,5 km/h (5 Bft)
24.07.2014 14:14 26,4 C 26,1 C 55 % 1013,9 hPa 0,0 l/m 0 min 0 min 2,9 UV-I 348 W/m 25,1 km/h (4 Bft)
24.07.2014 14:16 26,7 C 26,7 C 56 % 1013,9 hPa 0,0 l/m 2 min 0 min 3,8 UV-I 438 W/m 20,9 km/h (4 Bft)
24.07.2014 14:18 26,9 C 26,7 C 55 % 1013,9 hPa 0,0 l/m 2 min 0 min 3,9 UV-I 756 W/m 27,2 km/h (4 Bft)
24.07.2014 14:20 27,1 C 26,7 C 55 % 1013,9 hPa 0,0 l/m 2 min 0 min 4,2 UV-I 764 W/m 23,0 km/h (4 Bft)
24.07.2014 14:22 27,2 C 26,7 C 54 % 1013,9 hPa 0,0 l/m 2 min 0 min 4,3 UV-I 796 W/m 27,2 km/h (4 Bft)
24.07.2014 14:24 27,3 C 27,2 C 54 % 1013,9 hPa 0,0 l/m 2 min 0 min 4,5 UV-I 841 W/m 27,2 km/h (4 Bft)
24.07.2014 14:26 27,6 C 27,2 C 53 % 1013,9 hPa 0,0 l/m 2 min 0 min 4,5 UV-I 848 W/m 18,8 km/h (3 Bft)
24.07.2014 14:28 27,5 C 27,2 C 52 % 1013,8 hPa 0,0 l/m 2 min 0 min 4,5 UV-I 842 W/m 18,8 km/h (3 Bft)
24.07.2014 14:30 27,9 C 27,2 C 53 % 1013,9 hPa 0,0 l/m 2 min 0 min 4,3 UV-I 811 W/m 23,0 km/h (4 Bft)
24.07.2014 14:32 28,1 C 27,2 C 53 % 1013,8 hPa 0,0 l/m 2 min 0 min 4,1 UV-I 803 W/m 10,5 km/h (2 Bft)
24.07.2014 14:34 28,3 C 27,8 C 52 % 1013,8 hPa 0,0 l/m 2 min 0 min 4,3 UV-I 813 W/m 18,8 km/h (3 Bft)
24.07.2014 14:36 28,2 C 27,2 C 50 % 1013,8 hPa 0,0 l/m 2 min 0 min 4,3 UV-I 833 W/m 18,8 km/h (3 Bft)
24.07.2014 14:38 28,1 C 27,8 C 50 % 1013,7 hPa 0,0 l/m 2 min 0 min 4,4 UV-I 836 W/m 18,8 km/h (3 Bft)
24.07.2014 14:40 28,3 C 27,8 C 50 % 1013,7 hPa 0,0 l/m 2 min 0 min 4,3 UV-I 833 W/m 16,7 km/h (3 Bft)
24.07.2014 14:42 28,2 C 27,8 C 50 % 1013,6 hPa 0,0 l/m 2 min 0 min 4,1 UV-I 824 W/m 29,3 km/h (5 Bft)
24.07.2014 14:44 28,3 C 27,8 C 50 % 1013,6 hPa 0,0 l/m 2 min 0 min 3,9 UV-I 815 W/m 18,8 km/h (3 Bft)
24.07.2014 14:46 28,0 C 27,2 C 50 % 1013,6 hPa 0,0 l/m 2 min 0 min 4,1 UV-I 751 W/m 20,9 km/h (4 Bft)
24.07.2014 14:48 27,8 C 27,2 C 51 % 1013,6 hPa 0,0 l/m 2 min 0 min 4,2 UV-I 746 W/m 25,1 km/h (4 Bft)
24.07.2014 14:50 28,0 C 27,8 C 53 % 1013,5 hPa 0,0 l/m 2 min 0 min 3,8 UV-I 846 W/m 31,4 km/h (5 Bft)
24.07.2014 14:52 28,1 C 27,2 C 53 % 1013,5 hPa 0,0 l/m 2 min 0 min 3,3 UV-I 870 W/m 23,0 km/h (4 Bft)
24.07.2014 14:54 27,9 C 27,2 C 51 % 1013,6 hPa 0,0 l/m 2 min 0 min 3,2 UV-I 868 W/m 20,9 km/h (4 Bft)
24.07.2014 14:56 27,9 C 27,2 C 52 % 1013,6 hPa 0,0 l/m 2 min 0 min 4,1 UV-I 807 W/m 18,8 km/h (3 Bft)
24.07.2014 14:58 28,3 C 27,8 C 50 % 1013,5 hPa 0,0 l/m 2 min 0 min 4,0 UV-I 800 W/m 18,8 km/h (3 Bft)
24.07.2014 15:00 28,5 C 27,8 C 51 % 1013,6 hPa 0,0 l/m 2 min 0 min 3,4 UV-I 728 W/m 20,9 km/h (4 Bft)
24.07.2014 15:02 28,4 C 27,8 C 49 % 1013,5 hPa 0,0 l/m 2 min 0 min 3,5 UV-I 616 W/m 23,0 km/h (4 Bft)
24.07.2014 15:04 28,5 C 27,8 C 52 % 1013,5 hPa 0,0 l/m 2 min 0 min 3,8 UV-I 668 W/m 29,3 km/h (5 Bft)
24.07.2014 15:06 28,5 C 27,8 C 49 % 1013,6 hPa 0,0 l/m 2 min 0 min 4,0 UV-I 764 W/m 25,1 km/h (4 Bft)
24.07.2014 15:08 28,5 C 27,2 C 49 % 1013,5 hPa 0,0 l/m 2 min 0 min 3,5 UV-I 846 W/m 23,0 km/h (4 Bft)
24.07.2014 15:10 28,2 C 27,2 C 48 % 1013,5 hPa 0,0 l/m 2 min 0 min 4,0 UV-I 794 W/m 27,2 km/h (4 Bft)
24.07.2014 15:12 28,2 C 27,8 C 49 % 1013,4 hPa 0,0 l/m 2 min 0 min 3,7 UV-I 816 W/m 14,6 km/h (3 Bft)
24.07.2014 15:14 28,2 C 27,8 C 48 % 1013,4 hPa 0,0 l/m 2 min 0 min 3,9 UV-I 808 W/m 20,9 km/h (4 Bft)
24.07.2014 15:16 28,6 C 27,8 C 53 % 1013,4 hPa 0,0 l/m 2 min 0 min 3,8 UV-I 789 W/m 16,7 km/h (3 Bft)
24.07.2014 15:18 29,0 C 28,3 C 50 % 1013,3 hPa 0,0 l/m 2 min 0 min 3,8 UV-I 841 W/m 14,6 km/h (3 Bft)
24.07.2014 15:20 28,8 C 27,8 C 48 % 1013,4 hPa 0,0 l/m 2 min 0 min 3,5 UV-I 824 W/m 37,7 km/h (5 Bft)
24.07.2014 15:22 28,5 C 27,2 C 48 % 1013,3 hPa 0,0 l/m 2 min 0 min 2,4 UV-I 638 W/m 29,3 km/h (5 Bft)
24.07.2014 15:24 27,9 C 26,7 C 47 % 1013,3 hPa 0,0 l/m 0 min 0 min 2,2 UV-I 232 W/m 31,4 km/h (5 Bft)
24.07.2014 15:26 27,5 C 26,1 C 50 % 1013,4 hPa 0,0 l/m 0 min 0 min 1,8 UV-I 191 W/m 31,4 km/h (5 Bft)
24.07.2014 15:28 27,3 C 26,7 C 51 % 1013,3 hPa 0,0 l/m 0 min 0 min 3,1 UV-I 190 W/m 18,8 km/h (3 Bft)
24.07.2014 15:30 27,3 C 26,7 C 50 % 1013,3 hPa 0,0 l/m 2 min 0 min 2,7 UV-I 748 W/m 35,6 km/h (5 Bft)
24.07.2014 15:32 27,4 C 26,7 C 52 % 1013,4 hPa 0,0 l/m 2 min 0 min 1,8 UV-I 611 W/m 25,1 km/h (4 Bft)
24.07.2014 15:34 27,4 C 26,1 C 51 % 1013,3 hPa 0,0 l/m 0 min 0 min 1,5 UV-I 260 W/m 20,9 km/h (4 Bft)
24.07.2014 15:36 27,3 C 26,1 C 52 % 1013,4 hPa 0,0 l/m 0 min 0 min 1,6 UV-I 182 W/m 23,0 km/h (4 Bft)
24.07.2014 15:38 27,2 C 26,1 C 51 % 1013,4 hPa 0,0 l/m 0 min 0 min 1,8 UV-I 189 W/m 29,3 km/h (5 Bft)
24.07.2014 15:40 27,1 C 26,1 C 53 % 1013,3 hPa 0,0 l/m 0 min 0 min 2,3 UV-I 192 W/m 31,4 km/h (5 Bft)
24.07.2014 15:42 27,2 C 26,1 C 51 % 1013,3 hPa 0,0 l/m 0 min 0 min 2,1 UV-I 277 W/m 16,7 km/h (3 Bft)
24.07.2014 15:44 27,2 C 26,7 C 50 % 1013,3 hPa 0,0 l/m 2 min 0 min 3,1 UV-I 659 W/m 20,9 km/h (4 Bft)
24.07.2014 15:46 27,2 C 26,7 C 50 % 1013,3 hPa 0,0 l/m 2 min 0 min 2,9 UV-I 775 W/m 39,7 km/h (6 Bft)
24.07.2014 15:48 27,3 C 26,7 C 53 % 1013,3 hPa 0,0 l/m 2 min 0 min 1,5 UV-I 409 W/m 31,4 km/h (5 Bft)
24.07.2014 15:50 27,3 C 26,1 C 51 % 1013,3 hPa 0,0 l/m 0 min 0 min 1,4 UV-I 167 W/m 27,2 km/h (4 Bft)
24.07.2014 15:52 27,1 C 26,1 C 51 % 1013,2 hPa 0,0 l/m 0 min 0 min 1,5 UV-I 153 W/m 25,1 km/h (4 Bft)
24.07.2014 15:54 26,8 C 25,6 C 50 % 1013,3 hPa 0,0 l/m 0 min 0 min 1,5 UV-I 137 W/m 20,9 km/h (4 Bft)
24.07.2014 15:56 26,7 C 25,6 C 51 % 1013,2 hPa 0,0 l/m 0 min 0 min 2,1 UV-I 187 W/m 23,0 km/h (4 Bft)
24.07.2014 15:58 26,9 C 26,1 C 51 % 1013,2 hPa 0,0 l/m 2 min 0 min 2,9 UV-I 604 W/m 20,9 km/h (4 Bft)
24.07.2014 16:00 27,2 C 26,7 C 51 % 1013,1 hPa 0,0 l/m 2 min 0 min 2,9 UV-I 665 W/m 18,8 km/h (3 Bft)
24.07.2014 16:02 27,6 C 27,2 C 51 % 1013,2 hPa 0,0 l/m 2 min 0 min 2,9 UV-I 679 W/m 35,6 km/h (5 Bft)
24.07.2014 16:04 27,9 C 27,2 C 50 % 1013,3 hPa 0,0 l/m 2 min 0 min 2,9 UV-I 726 W/m 31,4 km/h (5 Bft)
24.07.2014 16:06 28,2 C 27,8 C 49 % 1013,2 hPa 0,0 l/m 2 min 0 min 2,8 UV-I 713 W/m 27,2 km/h (4 Bft)
24.07.2014 16:08 28,4 C 27,8 C 48 % 1013,2 hPa 0,0 l/m 2 min 0 min 2,7 UV-I 692 W/m 37,7 km/h (5 Bft)
24.07.2014 16:10 28,5 C 27,8 C 49 % 1013,3 hPa 0,0 l/m 2 min 0 min 2,6 UV-I 650 W/m 25,1 km/h (4 Bft)
24.07.2014 16:12 28,7 C 27,8 C 48 % 1013,2 hPa 0,0 l/m 2 min 0 min 2,5 UV-I 562 W/m 18,8 km/h (3 Bft)
24.07.2014 16:14 28,6 C 27,8 C 48 % 1013,2 hPa 0,0 l/m 2 min 0 min 2,6 UV-I 585 W/m 25,1 km/h (4 Bft)
24.07.2014 16:16 28,7 C 28,3 C 47 % 1013,3 hPa 0,0 l/m 2 min 0 min 2,7 UV-I 662 W/m 23,0 km/h (4 Bft)
24.07.2014 16:18 28,7 C 28,9 C 46 % 1013,3 hPa 0,0 l/m 2 min 0 min 2,8 UV-I 712 W/m 23,0 km/h (4 Bft)
24.07.2014 16:20 28,7 C 30,6 C 46 % 1013,3 hPa 0,0 l/m 2 min 0 min 2,8 UV-I 724 W/m 31,4 km/h (5 Bft)
24.07.2014 16:22 28,7 C 31,7 C 47 % 1013,3 hPa 0,0 l/m 2 min 0 min 2,7 UV-I 703 W/m 23,0 km/h (4 Bft)
24.07.2014 16:24 28,7 C 32,2 C 47 % 1013,3 hPa 0,0 l/m 2 min 0 min 2,6 UV-I 681 W/m 33,5 km/h (5 Bft)
24.07.2014 16:26 28,7 C 32,2 C 45 % 1013,3 hPa 0,0 l/m 2 min 0 min 2,6 UV-I 661 W/m 31,4 km/h (5 Bft)
24.07.2014 16:28 28,6 C 32,2 C 48 % 1013,3 hPa 0,0 l/m 2 min 0 min 2,7 UV-I 661 W/m 29,3 km/h (5 Bft)
24.07.2014 16:30 28,5 C 32,2 C 46 % 1013,2 hPa 0,0 l/m 2 min 0 min 2,6 UV-I 667 W/m 31,4 km/h (5 Bft)
24.07.2014 16:32 28,3 C 32,8 C 46 % 1013,3 hPa 0,0 l/m 2 min 0 min 2,6 UV-I 676 W/m 31,4 km/h (5 Bft)
24.07.2014 16:34 28,4 C 33,3 C 47 % 1013,2 hPa 0,0 l/m 2 min 0 min 2,6 UV-I 680 W/m 29,3 km/h (5 Bft)
24.07.2014 16:36 28,6 C 33,3 C 47 % 1013,3 hPa 0,0 l/m 2 min 0 min 2,3 UV-I 625 W/m 20,9 km/h (4 Bft)
24.07.2014 16:38 28,6 C 32,2 C 46 % 1013,2 hPa 0,0 l/m 2 min 0 min 1,8 UV-I 472 W/m 20,9 km/h (4 Bft)
24.07.2014 16:40 28,4 C 31,1 C 46 % 1013,2 hPa 0,0 l/m 2 min 0 min 1,7 UV-I 422 W/m 27,2 km/h (4 Bft)
24.07.2014 16:42 28,3 C 30,6 C 47 % 1013,2 hPa 0,0 l/m 2 min 0 min 1,8 UV-I 460 W/m 16,7 km/h (3 Bft)
24.07.2014 16:44 28,3 C 30,6 C 47 % 1013,2 hPa 0,0 l/m 2 min 0 min 1,6 UV-I 428 W/m 25,1 km/h (4 Bft)
24.07.2014 16:46 28,3 C 31,1 C 46 % 1013,3 hPa 0,0 l/m 2 min 0 min 1,6 UV-I 417 W/m 29,3 km/h (5 Bft)
24.07.2014 16:48 28,2 C 30,6 C 47 % 1013,3 hPa 0,0 l/m 2 min 0 min 1,7 UV-I 417 W/m 27,2 km/h (4 Bft)
24.07.2014 16:50 28,3 C 32,2 C 48 % 1013,3 hPa 0,0 l/m 2 min 0 min 2,0 UV-I 631 W/m 12,6 km/h (3 Bft)
24.07.2014 16:52 27,9 C 30,6 C 48 % 1013,4 hPa 0,0 l/m 2 min 0 min 1,4 UV-I 569 W/m 20,9 km/h (4 Bft)
24.07.2014 16:54 27,2 C 28,3 C 49 % 1013,4 hPa 0,0 l/m 0 min 0 min 1,1 UV-I 217 W/m 8,4 km/h (2 Bft)
24.07.2014 16:56 26,7 C 27,8 C 50 % 1013,4 hPa 0,0 l/m 0 min 0 min 1,1 UV-I 253 W/m 12,6 km/h (3 Bft)
24.07.2014 16:58 26,3 C 27,8 C 51 % 1013,4 hPa 0,0 l/m 2 min 0 min 1,2 UV-I 401 W/m 4,2 km/h (1 Bft)
24.07.2014 17:00 26,0 C 26,7 C 53 % 1013,4 hPa 0,0 l/m 0 min 0 min 1,0 UV-I 263 W/m 6,3 km/h (2 Bft)
24.07.2014 17:02 25,9 C 26,1 C 53 % 1013,4 hPa 0,0 l/m 0 min 0 min 1,0 UV-I 189 W/m 8,4 km/h (2 Bft)
24.07.2014 17:04 25,8 C 25,6 C 53 % 1013,4 hPa 0,0 l/m 0 min 0 min 1,0 UV-I 196 W/m 12,6 km/h (3 Bft)
24.07.2014 17:06 25,8 C 25,6 C 54 % 1013,4 hPa 0,0 l/m 0 min 0 min 1,0 UV-I 201 W/m 14,6 km/h (3 Bft)
24.07.2014 17:08 25,8 C 25,0 C 52 % 1013,5 hPa 0,0 l/m 0 min 0 min 0,9 UV-I 219 W/m 20,9 km/h (4 Bft)
24.07.2014 17:10 25,9 C 25,6 C 53 % 1013,5 hPa 0,0 l/m 2 min 0 min 1,5 UV-I 490 W/m 29,3 km/h (5 Bft)
24.07.2014 17:12 26,1 C 25,6 C 53 % 1013,4 hPa 0,0 l/m 2 min 0 min 1,4 UV-I 661 W/m 18,8 km/h (3 Bft)
24.07.2014 17:14 26,4 C 25,6 C 52 % 1013,5 hPa 0,0 l/m 2 min 0 min 1,2 UV-I 625 W/m 14,6 km/h (3 Bft)
24.07.2014 17:16 26,6 C 25,6 C 52 % 1013,5 hPa 0,0 l/m 2 min 0 min 0,8 UV-I 613 W/m 12,6 km/h (3 Bft)
24.07.2014 17:18 26,6 C 25,6 C 52 % 1013,5 hPa 0,0 l/m 0 min 0 min 0,0 UV-I 278 W/m 14,6 km/h (3 Bft)
24.07.2014 17:20 26,3 C 25,0 C 51 % 1013,5 hPa 0,0 l/m 0 min 0 min 0,0 UV-I 149 W/m 18,8 km/h (3 Bft)
24.07.2014 17:22 26,1 C 24,4 C 50 % 1013,5 hPa 0,0 l/m 0 min 0 min 0,0 UV-I 127 W/m 12,6 km/h (3 Bft)
24.07.2014 17:24 25,8 C 24,4 C 52 % 1013,5 hPa 0,0 l/m 0 min 0 min 0,0 UV-I 114 W/m 10,5 km/h (2 Bft)
24.07.2014 17:26 25,7 C 24,4 C 53 % 1013,5 hPa 0,0 l/m 0 min 0 min 0,0 UV-I 111 W/m 8,4 km/h (2 Bft)
24.07.2014 17:28 25,6 C 24,4 C 52 % 1013,5 hPa 0,0 l/m 0 min 0 min 0,0 UV-I 114 W/m 8,4 km/h (2 Bft)
24.07.2014 17:30 25,4 C 24,4 C 52 % 1013,5 hPa 0,0 l/m 0 min 0 min 0,0 UV-I 114 W/m 6,3 km/h (2 Bft)
24.07.2014 17:32 25,3 C 24,4 C 55 % 1013,5 hPa 0,0 l/m 0 min 0 min 0,0 UV-I 121 W/m 2,1 km/h (1 Bft)
24.07.2014 17:34 25,3 C 24,4 C 53 % 1013,5 hPa 0,0 l/m 0 min 0 min 0,0 UV-I 127 W/m 2,1 km/h (1 Bft)
24.07.2014 17:36 25,3 C 24,4 C 54 % 1013,5 hPa 0,0 l/m 0 min 0 min 0,0 UV-I 121 W/m 0,0 km/h (0 Bft)
24.07.2014 17:38 25,3 C 24,4 C 53 % 1013,7 hPa 0,0 l/m 0 min 0 min 0,0 UV-I 114 W/m 14,6 km/h (3 Bft)
24.07.2014 17:40 25,3 C 24,4 C 52 % 1013,8 hPa 0,0 l/m 0 min 0 min 0,0 UV-I 111 W/m 14,6 km/h (3 Bft)
24.07.2014 17:42 25,3 C 24,4 C 52 % 1013,8 hPa 0,0 l/m 0 min 0 min 0,0 UV-I 107 W/m 12,6 km/h (3 Bft)
24.07.2014 17:44 25,3 C 24,4 C 53 % 1013,8 hPa 0,0 l/m 0 min 0 min 0,0 UV-I 96 W/m 10,5 km/h (2 Bft)
24.07.2014 17:46 25,3 C 23,9 C 55 % 1013,9 hPa 0,0 l/m 0 min 0 min 0,0 UV-I 88 W/m 10,5 km/h (2 Bft)
24.07.2014 17:48 25,3 C 24,4 C 53 % 1013,9 hPa 0,0 l/m 0 min 0 min 0,0 UV-I 82 W/m 18,8 km/h (3 Bft)
24.07.2014 17:50 25,3 C 23,9 C 53 % 1014,0 hPa 0,0 l/m 0 min 0 min 0,0 UV-I 72 W/m 35,6 km/h (5 Bft)
24.07.2014 17:52 25,1 C 23,3 C 52 % 1014,1 hPa 0,0 l/m 0 min 0 min 0,0 UV-I 55 W/m 39,7 km/h (6 Bft)
24.07.2014 17:54 24,9 C 23,3 C 53 % 1014,2 hPa 0,0 l/m 0 min 0 min 0,0 UV-I 47 W/m 29,3 km/h (5 Bft)
24.07.2014 17:56 24,6 C 22,8 C 54 % 1014,2 hPa 0,0 l/m 0 min 0 min 0,0 UV-I 46 W/m 33,5 km/h (5 Bft)
24.07.2014 17:58 24,4 C 22,8 C 54 % 1014,3 hPa 0,0 l/m 0 min 0 min 0,0 UV-I 47 W/m 29,3 km/h (5 Bft)
24.07.2014 18:00 24,1 C 22,2 C 57 % 1014,6 hPa 0,0 l/m 0 min 0 min 0,0 UV-I 56 W/m 48,1 km/h (6 Bft)
24.07.2014 18:02 23,4 C 21,7 C 59 % 1014,4 hPa 0,0 l/m 0 min 0 min 0,0 UV-I 68 W/m 41,8 km/h (6 Bft)
24.07.2014 18:06 22,0 C 20,6 C 65 % 1014,4 hPa 0,0 l/m 0 min 0 min 0,0 UV-I 86 W/m 31,4 km/h (5 Bft)
24.07.2014 18:08 21,3 C 20,0 C 65 % 1014,4 hPa 0,0 l/m 0 min 0 min 0,0 UV-I 90 W/m 27,2 km/h (4 Bft)
24.07.2014 18:10 21,0 C 20,0 C 67 % 1014,2 hPa 0,0 l/m 0 min 0 min 0,0 UV-I 87 W/m 25,1 km/h (4 Bft)
24.07.2014 18:12 20,7 C 20,0 C 68 % 1014,2 hPa 0,0 l/m 0 min 0 min 0,0 UV-I 92 W/m 23,0 km/h (4 Bft)
24.07.2014 18:14 20,6 C 20,0 C 67 % 1014,2 hPa 0,0 l/m 0 min 0 min 0,0 UV-I 101 W/m 23,0 km/h (4 Bft)
24.07.2014 18:16 20,5 C 20,0 C 68 % 1014,1 hPa 0,0 l/m 0 min 0 min 0,0 UV-I 108 W/m 16,7 km/h (3 Bft)
24.07.2014 18:18 20,5 C 20,0 C 68 % 1014,1 hPa 0,0 l/m 0 min 0 min 0,0 UV-I 112 W/m 16,7 km/h (3 Bft)
24.07.2014 18:20 20,6 C 20,0 C 66 % 1014,1 hPa 0,0 l/m 0 min 0 min 0,0 UV-I 120 W/m 20,9 km/h (4 Bft)
24.07.2014 18:22 20,7 C 20,6 C 65 % 1014,0 hPa 0,0 l/m 0 min 0 min 0,0 UV-I 127 W/m 14,6 km/h (3 Bft)
24.07.2014 18:24 20,8 C 20,6 C 65 % 1014,2 hPa 0,0 l/m 0 min 0 min 0,0 UV-I 137 W/m 16,7 km/h (3 Bft)
24.07.2014 18:26 20,8 C 20,6 C 65 % 1014,2 hPa 0,0 l/m 0 min 0 min 0,0 UV-I 158 W/m 12,6 km/h (3 Bft)
24.07.2014 18:28 20,9 C 20,6 C 65 % 1014,2 hPa 0,0 l/m 0 min 0 min 0,0 UV-I 170 W/m 18,8 km/h (3 Bft)
24.07.2014 18:30 20,8 C 20,6 C 66 % 1014,2 hPa 0,0 l/m 2 min 0 min 0,0 UV-I 216 W/m 16,7 km/h (3 Bft)
24.07.2014 18:32 20,9 C 20,6 C 66 % 1014,2 hPa 0,0 l/m 2 min 0 min 0,0 UV-I 233 W/m 23,0 km/h (4 Bft)
24.07.2014 18:34 20,9 C 20,6 C 68 % 1014,1 hPa 0,0 l/m 2 min 0 min 0,0 UV-I 278 W/m 14,6 km/h (3 Bft)
24.07.2014 18:36 21,1 C 21,1 C 68 % 1014,0 hPa 0,0 l/m 2 min 0 min 0,0 UV-I 236 W/m 14,6 km/h (3 Bft)
24.07.2014 18:38 21,1 C 21,1 C 68 % 1014,0 hPa 0,0 l/m 0 min 0 min 0,0 UV-I 191 W/m 16,7 km/h (3 Bft)
24.07.2014 18:40 21,1 C 20,6 C 69 % 1014,0 hPa 0,0 l/m 0 min 0 min 0,0 UV-I 164 W/m 12,6 km/h (3 Bft)
24.07.2014 18:42 21,1 C 20,6 C 69 % 1014,0 hPa 0,0 l/m 0 min 0 min 0,0 UV-I 158 W/m 8,4 km/h (2 Bft)
24.07.2014 18:44 21,1 C 20,6 C 69 % 1013,9 hPa 0,0 l/m 0 min 0 min 0,0 UV-I 155 W/m 8,4 km/h (2 Bft)
24.07.2014 18:46 21,1 C 20,6 C 70 % 1013,9 hPa 0,0 l/m 0 min 0 min 0,0 UV-I 132 W/m 8,4 km/h (2 Bft)
24.07.2014 18:48 21,0 C 20,6 C 70 % 1013,9 hPa 0,0 l/m 0 min 0 min 0,0 UV-I 117 W/m 18,8 km/h (3 Bft)
24.07.2014 18:50 21,0 C 20,6 C 70 % 1013,9 hPa 0,0 l/m 0 min 0 min 0,0 UV-I 105 W/m 20,9 km/h (4 Bft)
24.07.2014 18:52 20,9 C 20,6 C 71 % 1013,9 hPa 0,0 l/m 0 min 0 min 0,0 UV-I 97 W/m 10,5 km/h (2 Bft)
24.07.2014 18:54 20,9 C 20,6 C 71 % 1013,9 hPa 0,0 l/m 0 min 0 min 0,0 UV-I 88 W/m 6,3 km/h (2 Bft)
24.07.2014 18:56 20,9 C 20,6 C 71 % 1013,8 hPa 0,0 l/m 0 min 0 min 0,0 UV-I 84 W/m 8,4 km/h (2 Bft)
24.07.2014 18:58 20,8 C 20,0 C 72 % 1013,8 hPa 0,0 l/m 0 min 0 min 0,0 UV-I 81 W/m 4,2 km/h (1 Bft)
24.07.2014 19:00 20,8 C 20,0 C 71 % 1013,8 hPa 0,0 l/m 0 min 0 min 0,0 UV-I 79 W/m 6,3 km/h (2 Bft)
24.07.2014 19:02 20,8 C 20,0 C 72 % 1013,9 hPa 0,0 l/m 0 min 0 min 0,0 UV-I 80 W/m 2,1 km/h (1 Bft)
24.07.2014 19:04 20,8 C 20,0 C 72 % 1013,8 hPa 0,0 l/m 0 min 0 min 0,0 UV-I 79 W/m 0,0 km/h (0 Bft)
24.07.2014 19:06 20,9 C 20,0 C 73 % 1013,9 hPa 0,0 l/m 0 min 0 min 0,0 UV-I 81 W/m 0,0 km/h (0 Bft)
24.07.2014 19:08 20,9 C 20,0 C 72 % 1013,9 hPa 0,0 l/m 0 min 0 min 0,0 UV-I 81 W/m 2,1 km/h (1 Bft)
24.07.2014 19:10 20,8 C 20,0 C 73 % 1013,9 hPa 0,0 l/m 0 min 0 min 0,0 UV-I 78 W/m 10,5 km/h (2 Bft)
24.07.2014 19:12 20,8 C 20,0 C 74 % 1013,9 hPa 0,0 l/m 0 min 0 min 0,0 UV-I 77 W/m 8,4 km/h (2 Bft)
24.07.2014 19:14 20,7 C 20,0 C 74 % 1013,9 hPa 0,0 l/m 0 min 0 min 0,0 UV-I 77 W/m 8,4 km/h (2 Bft)
24.07.2014 19:16 20,7 C 20,0 C 74 % 1013,9 hPa 0,0 l/m 0 min 0 min 0,0 UV-I 76 W/m 8,4 km/h (2 Bft)
24.07.2014 19:18 20,6 C 20,0 C 74 % 1013,9 hPa 0,0 l/m 0 min 0 min 0,0 UV-I 82 W/m 8,4 km/h (2 Bft)
24.07.2014 19:20 20,6 C 20,0 C 74 % 1013,8 hPa 0,0 l/m 0 min 0 min 0,0 UV-I 85 W/m 6,3 km/h (2 Bft)
24.07.2014 19:22 20,6 C 20,0 C 75 % 1013,8 hPa 0,0 l/m 0 min 0 min 0,0 UV-I 88 W/m 0,0 km/h (0 Bft)
24.07.2014 19:24 20,7 C 20,0 C 74 % 1013,9 hPa 0,0 l/m 0 min 0 min 0,0 UV-I 97 W/m 0,0 km/h (0 Bft)
24.07.2014 19:26 20,8 C 20,0 C 73 % 1013,9 hPa 0,0 l/m 0 min 0 min 0,0 UV-I 107 W/m 0,0 km/h (0 Bft)
24.07.2014 19:28 20,8 C 20,0 C 73 % 1013,9 hPa 0,0 l/m 0 min 0 min 0,0 UV-I 114 W/m 0,0 km/h (0 Bft)
24.07.2014 19:30 20,9 C 20,0 C 72 % 1014,1 hPa 0,0 l/m 0 min 0 min 0,0 UV-I 112 W/m 0,0 km/h (0 Bft)
24.07.2014 19:32 20,9 C 20,0 C 72 % 1014,1 hPa 0,0 l/m 0 min 0 min 0,0 UV-I 105 W/m 0,0 km/h (0 Bft)
24.07.2014 19:34 20,9 C 20,0 C 72 % 1014,1 hPa 0,0 l/m 0 min 0 min 0,0 UV-I 109 W/m 6,3 km/h (2 Bft)
24.07.2014 19:36 21,0 C 20,6 C 72 % 1014,1 hPa 0,0 l/m 0 min 0 min 0,0 UV-I 131 W/m 0,0 km/h (0 Bft)
24.07.2014 19:38 21,1 C 20,6 C 73 % 1014,1 hPa 0,0 l/m 2 min 0 min 0,0 UV-I 144 W/m 0,0 km/h (0 Bft)
24.07.2014 19:40 21,2 C 20,6 C 74 % 1014,2 hPa 0,0 l/m 2 min 0 min 0,0 UV-I 143 W/m 0,0 km/h (0 Bft)
24.07.2014 19:42 21,4 C 21,1 C 72 % 1014,2 hPa 0,0 l/m 2 min 0 min 0,0 UV-I 133 W/m 2,1 km/h (1 Bft)
24.07.2014 19:44 21,5 C 21,1 C 70 % 1014,3 hPa 0,0 l/m 2 min 0 min 0,0 UV-I 169 W/m 4,2 km/h (1 Bft)
24.07.2014 19:46 21,6 C 21,1 C 69 % 1014,3 hPa 0,0 l/m 2 min 0 min 0,0 UV-I 181 W/m 6,3 km/h (2 Bft)
24.07.2014 19:48 21,6 C 21,1 C 68 % 1014,4 hPa 0,0 l/m 2 min 0 min 0,0 UV-I 198 W/m 6,3 km/h (2 Bft)
24.07.2014 19:50 21,8 C 21,1 C 68 % 1014,5 hPa 0,0 l/m 2 min 0 min 0,0 UV-I 205 W/m 18,8 km/h (3 Bft)
24.07.2014 19:52 21,9 C 21,1 C 69 % 1014,6 hPa 0,0 l/m 2 min 0 min 0,0 UV-I 206 W/m 18,8 km/h (3 Bft)
24.07.2014 19:54 21,9 C 21,7 C 68 % 1014,5 hPa 0,0 l/m 2 min 0 min 0,0 UV-I 212 W/m 16,7 km/h (3 Bft)
24.07.2014 19:56 22,0 C 21,7 C 67 % 1014,4 hPa 0,0 l/m 2 min 0 min 0,0 UV-I 218 W/m 16,7 km/h (3 Bft)
24.07.2014 19:58 22,1 C 21,7 C 67 % 1014,3 hPa 0,0 l/m 2 min 0 min 0,3 UV-I 201 W/m 6,3 km/h (2 Bft)
24.07.2014 20:00 22,1 C 21,7 C 66 % 1014,3 hPa 0,0 l/m 2 min 0 min 0,0 UV-I 181 W/m 10,5 km/h (2 Bft)
24.07.2014 20:02 22,2 C 21,7 C 65 % 1014,3 hPa 0,0 l/m 2 min 0 min 0,0 UV-I 189 W/m 18,8 km/h (3 Bft)
24.07.2014 20:04 22,2 C 21,7 C 63 % 1014,3 hPa 0,0 l/m 2 min 0 min 0,0 UV-I 189 W/m 20,9 km/h (4 Bft)
24.07.2014 20:06 22,2 C 21,7 C 65 % 1014,3 hPa 0,0 l/m 2 min 0 min 0,0 UV-I 192 W/m 16,7 km/h (3 Bft)
24.07.2014 20:08 22,2 C 21,7 C 64 % 1014,3 hPa 0,0 l/m 2 min 0 min 0,0 UV-I 191 W/m 18,8 km/h (3 Bft)
24.07.2014 20:10 22,2 C 21,7 C 68 % 1014,3 hPa 0,0 l/m 2 min 2 min 0,0 UV-I 199 W/m 14,6 km/h (3 Bft)
24.07.2014 20:12 22,1 C 21,7 C 68 % 1014,3 hPa 0,0 l/m 2 min 2 min 0,0 UV-I 216 W/m 20,9 km/h (4 Bft)
24.07.2014 20:14 22,0 C 21,1 C 68 % 1014,3 hPa 0,0 l/m 2 min 2 min 0,0 UV-I 198 W/m 16,7 km/h (3 Bft)
24.07.2014 20:16 21,8 C 20,6 C 70 % 1014,3 hPa 0,0 l/m 2 min 2 min 0,0 UV-I 176 W/m 25,1 km/h (4 Bft)
24.07.2014 20:18 21,6 C 20,6 C 71 % 1014,3 hPa 0,0 l/m 2 min 2 min 0,0 UV-I 148 W/m 14,6 km/h (3 Bft)
24.07.2014 20:20 21,5 C 19,4 C 73 % 1014,3 hPa 0,0 l/m 2 min 2 min 0,0 UV-I 134 W/m 16,7 km/h (3 Bft)
24.07.2014 20:22 21,3 C 18,9 C 74 % 1014,3 hPa 0,0 l/m 2 min 2 min 0,0 UV-I 116 W/m 18,8 km/h (3 Bft)
24.07.2014 20:24 21,1 C 17,8 C 74 % 1014,3 hPa 0,0 l/m 2 min 2 min 0,0 UV-I 108 W/m 18,8 km/h (3 Bft)
24.07.2014 20:26 20,9 C 17,2 C 76 % 1014,3 hPa 0,0 l/m 2 min 2 min 0,0 UV-I 108 W/m 14,6 km/h (3 Bft)
24.07.2014 20:28 20,6 C 17,2 C 78 % 1014,2 hPa 0,0 l/m 2 min 2 min 0,0 UV-I 101 W/m 8,4 km/h (2 Bft)
24.07.2014 20:30 20,3 C 16,7 C 78 % 1014,3 hPa 0,0 l/m 2 min 2 min 0,0 UV-I 92 W/m 0,0 km/h (0 Bft)
24.07.2014 20:32 20,1 C 16,7 C 79 % 1014,2 hPa 0,0 l/m 2 min 2 min 0,0 UV-I 82 W/m 0,0 km/h (0 Bft)
24.07.2014 20:34 19,9 C 16,7 C 79 % 1014,2 hPa 0,2 l/m 2 min 2 min 0,0 UV-I 72 W/m 8,4 km/h (2 Bft)
24.07.2014 20:36 19,7 C 16,1 C 79 % 1014,2 hPa 0,0 l/m 0 min 2 min 0,0 UV-I 58 W/m 10,5 km/h (2 Bft)
24.07.2014 20:38 19,6 C 16,1 C 79 % 1014,2 hPa 0,0 l/m 0 min 2 min 0,0 UV-I 46 W/m 6,3 km/h (2 Bft)
24.07.2014 20:40 19,5 C 16,1 C 79 % 1014,2 hPa 0,0 l/m 0 min 2 min 0,0 UV-I 40 W/m 6,3 km/h (2 Bft)
24.07.2014 20:42 19,4 C 16,1 C 80 % 1014,2 hPa 0,0 l/m 0 min 0 min 0,0 UV-I 39 W/m 6,3 km/h (2 Bft)
24.07.2014 20:44 19,4 C 16,1 C 80 % 1014,2 hPa 0,0 l/m 0 min 0 min 0,0 UV-I 37 W/m 0,0 km/h (0 Bft)
24.07.2014 20:46 19,4 C 16,1 C 80 % 1014,2 hPa 0,0 l/m 0 min 0 min 0,0 UV-I 34 W/m 0,0 km/h (0 Bft)
24.07.2014 20:48 19,4 C 16,1 C 81 % 1014,2 hPa 0,0 l/m 0 min 0 min 0,0 UV-I 35 W/m 0,0 km/h (0 Bft)
24.07.2014 20:50 19,4 C 16,1 C 81 % 1014,2 hPa 0,0 l/m 0 min 0 min 0,0 UV-I 35 W/m 0,0 km/h (0 Bft)
24.07.2014 20:52 19,4 C 16,1 C 81 % 1014,2 hPa 0,0 l/m 0 min 0 min 0,0 UV-I 32 W/m 0,0 km/h (0 Bft)
24.07.2014 20:54 19,4 C 16,1 C 80 % 1014,3 hPa 0,0 l/m 0 min 0 min 0,0 UV-I 31 W/m 0,0 km/h (0 Bft)
24.07.2014 20:56 19,4 C 16,1 C 79 % 1014,3 hPa 0,0 l/m 0 min 0 min 0,0 UV-I 29 W/m 0,0 km/h (0 Bft)
24.07.2014 20:58 19,6 C 16,1 C 80 % 1014,3 hPa 0,0 l/m 0 min 0 min 0,0 UV-I 26 W/m 2,1 km/h (1 Bft)
24.07.2014 21:00 19,6 C 16,1 C 82 % 1014,3 hPa 0,0 l/m 0 min 0 min 0,0 UV-I 25 W/m 0,0 km/h (0 Bft)
24.07.2014 21:02 19,6 C 16,7 C 83 % 1014,3 hPa 0,0 l/m 0 min 0 min 0,0 UV-I 23 W/m 6,3 km/h (2 Bft)
24.07.2014 21:04 19,4 C 16,7 C 82 % 1014,3 hPa 0,0 l/m 0 min 0 min 0,0 UV-I 22 W/m 6,3 km/h (2 Bft)
24.07.2014 21:06 19,4 C 16,7 C 80 % 1014,4 hPa 0,0 l/m 0 min 0 min 0,0 UV-I 21 W/m 8,4 km/h (2 Bft)
24.07.2014 21:08 19,4 C 16,7 C 80 % 1014,3 hPa 0,0 l/m 0 min 0 min 0,0 UV-I 21 W/m 2,1 km/h (1 Bft)
24.07.2014 21:10 19,5 C 16,7 C 80 % 1014,3 hPa 0,0 l/m 0 min 0 min 0,0 UV-I 19 W/m 12,6 km/h (3 Bft)
24.07.2014 21:12 19,5 C 16,7 C 81 % 1014,4 hPa 0,0 l/m 2 min 0 min 0,0 UV-I 19 W/m 12,6 km/h (3 Bft)
24.07.2014 21:14 19,5 C 16,7 C 81 % 1014,4 hPa 0,0 l/m 2 min 0 min 0,0 UV-I 18 W/m 10,5 km/h (2 Bft)
24.07.2014 21:16 19,5 C 16,7 C 82 % 1014,5 hPa 0,0 l/m 2 min 0 min 0,0 UV-I 17 W/m 10,5 km/h (2 Bft)
24.07.2014 21:18 19,4 C 16,7 C 82 % 1014,5 hPa 0,0 l/m 2 min 0 min 0,0 UV-I 15 W/m 10,5 km/h (2 Bft)
24.07.2014 21:20 19,4 C 17,2 C 83 % 1014,5 hPa 0,0 l/m 2 min 0 min 0,0 UV-I 13 W/m 4,2 km/h (1 Bft)
24.07.2014 21:22 19,4 C 17,2 C 83 % 1014,4 hPa 0,0 l/m 0 min 0 min 0,0 UV-I 12 W/m 8,4 km/h (2 Bft)
24.07.2014 21:24 19,4 C 17,2 C 84 % 1014,5 hPa 0,0 l/m 0 min 0 min 0,0 UV-I 11 W/m 0,0 km/h (0 Bft)
24.07.2014 21:26 19,3 C 17,2 C 85 % 1014,4 hPa 0,0 l/m 0 min 0 min 0,0 UV-I 9 W/m 6,3 km/h (2 Bft)
24.07.2014 21:28 19,3 C 17,2 C 85 % 1014,4 hPa 0,0 l/m 0 min 0 min 0,0 UV-I 9 W/m 2,1 km/h (1 Bft)
24.07.2014 21:30 19,2 C 17,2 C 85 % 1014,4 hPa 0,0 l/m 0 min 0 min 0,0 UV-I 7 W/m 0,0 km/h (0 Bft)
24.07.2014 21:32 19,2 C 16,7 C 85 % 1014,4 hPa 0,0 l/m 0 min 0 min 0,0 UV-I 5 W/m 6,3 km/h (2 Bft)
24.07.2014 21:34 19,2 C 16,7 C 85 % 1014,3 hPa 0,0 l/m 0 min 0 min 0,0 UV-I 4 W/m 6,3 km/h (2 Bft)
24.07.2014 21:36 19,1 C 16,7 C 85 % 1014,4 hPa 0,0 l/m 0 min 0 min 0,0 UV-I 0 W/m 0,0 km/h (0 Bft)
24.07.2014 21:38 19,1 C 16,7 C 85 % 1014,4 hPa 0,0 l/m 0 min 0 min 0,0 UV-I 0 W/m 2,1 km/h (1 Bft)
24.07.2014 21:40 19,0 C 16,7 C 85 % 1014,5 hPa 0,0 l/m 0 min 0 min 0,0 UV-I 1 W/m 2,1 km/h (1 Bft)
24.07.2014 21:42 18,9 C 16,7 C 85 % 1014,5 hPa 0,0 l/m 0 min 0 min 0,0 UV-I 5 W/m 8,4 km/h (2 Bft)
24.07.2014 21:44 18,9 C 16,7 C 85 % 1014,5 hPa 0,0 l/m 0 min 0 min 0,0 UV-I 5 W/m 6,3 km/h (2 Bft)
24.07.2014 21:46 18,9 C 16,7 C 85 % 1014,5 hPa 0,0 l/m 0 min 0 min 0,0 UV-I 5 W/m 4,2 km/h (1 Bft)
24.07.2014 21:48 18,9 C 16,7 C 86 % 1014,5 hPa 0,0 l/m 0 min 0 min 0,0 UV-I 3 W/m 8,4 km/h (2 Bft)
24.07.2014 21:50 18,8 C 17,2 C 86 % 1014,5 hPa 0,0 l/m 0 min 0 min 0,0 UV-I 0 W/m 6,3 km/h (2 Bft)
24.07.2014 21:52 18,8 C 17,2 C 86 % 1014,6 hPa 0,0 l/m 0 min 0 min 0,0 UV-I 0 W/m 0,0 km/h (0 Bft)
24.07.2014 21:54 18,8 C 17,2 C 86 % 1014,5 hPa 0,0 l/m 0 min 0 min 0,0 UV-I 0 W/m 0,0 km/h (0 Bft)
24.07.2014 21:56 18,8 C 16,7 C 86 % 1014,5 hPa 0,0 l/m 0 min 0 min 0,0 UV-I 0 W/m 0,0 km/h (0 Bft)
24.07.2014 21:58 18,8 C 16,7 C 86 % 1014,5 hPa 0,0 l/m 0 min 0 min 0,0 UV-I 0 W/m 0,0 km/h (0 Bft)
24.07.2014 22:00 18,7 C 16,7 C 86 % 1014,5 hPa 0,0 l/m 0 min 0 min 0,0 UV-I 0 W/m 0,0 km/h (0 Bft)
24.07.2014 22:02 18,7 C 16,7 C 86 % 1014,6 hPa 0,0 l/m 0 min 0 min 0,0 UV-I 0 W/m 0,0 km/h (0 Bft)
24.07.2014 22:04 18,7 C 16,7 C 87 % 1014,6 hPa 0,0 l/m 0 min 0 min 0,0 UV-I 0 W/m 0,0 km/h (0 Bft)
24.07.2014 22:06 18,6 C 16,7 C 87 % 1014,7 hPa 0,0 l/m 0 min 0 min 0,0 UV-I 0 W/m 0,0 km/h (0 Bft)
24.07.2014 22:08 18,6 C 16,7 C 87 % 1014,7 hPa 0,0 l/m 0 min 0 min 0,0 UV-I 0 W/m 0,0 km/h (0 Bft)
24.07.2014 22:10 18,6 C 16,7 C 87 % 1014,7 hPa 0,0 l/m 0 min 0 min 0,0 UV-I 0 W/m 0,0 km/h (0 Bft)
24.07.2014 22:12 18,6 C 16,7 C 87 % 1014,7 hPa 0,0 l/m 0 min 0 min 0,0 UV-I 0 W/m 0,0 km/h (0 Bft)
24.07.2014 22:14 18,6 C 16,7 C 87 % 1014,7 hPa 0,0 l/m 0 min 0 min 0,0 UV-I 0 W/m 0,0 km/h (0 Bft)
24.07.2014 22:16 18,5 C 16,7 C 87 % 1014,7 hPa 0,0 l/m 0 min 0 min 0,0 UV-I 0 W/m 0,0 km/h (0 Bft)
24.07.2014 22:18 18,5 C 16,7 C 87 % 1014,7 hPa 0,0 l/m 0 min 0 min 0,0 UV-I 0 W/m 0,0 km/h (0 Bft)
24.07.2014 22:20 18,4 C 16,7 C 87 % 1014,7 hPa 0,0 l/m 0 min 0 min 0,0 UV-I 0 W/m 0,0 km/h (0 Bft)
24.07.2014 22:22 18,4 C 16,7 C 87 % 1014,7 hPa 0,0 l/m 0 min 0 min 0,0 UV-I 0 W/m 0,0 km/h (0 Bft)
24.07.2014 22:24 18,3 C 16,7 C 87 % 1014,8 hPa 0,0 l/m 0 min 0 min 0,0 UV-I 0 W/m 0,0 km/h (0 Bft)
24.07.2014 22:26 18,2 C 16,7 C 87 % 1014,8 hPa 0,0 l/m 0 min 0 min 0,0 UV-I 0 W/m 2,1 km/h (1 Bft)
24.07.2014 22:28 18,2 C 16,7 C 88 % 1014,8 hPa 0,0 l/m 0 min 0 min 0,0 UV-I 0 W/m 0,0 km/h (0 Bft)
24.07.2014 22:30 18,1 C 16,7 C 88 % 1014,8 hPa 0,0 l/m 0 min 0 min 0,0 UV-I 0 W/m 0,0 km/h (0 Bft)
24.07.2014 22:32 18,1 C 16,7 C 88 % 1014,8 hPa 0,0 l/m 0 min 0 min 0,0 UV-I 0 W/m 0,0 km/h (0 Bft)
24.07.2014 22:34 18,0 C 16,7 C 89 % 1014,8 hPa 0,0 l/m 0 min 0 min 0,0 UV-I 0 W/m 0,0 km/h (0 Bft)
24.07.2014 22:36 17,9 C 16,7 C 89 % 1014,8 hPa 0,0 l/m 0 min 0 min 0,0 UV-I 0 W/m 0,0 km/h (0 Bft)
24.07.2014 22:38 17,9 C 16,7 C 89 % 1014,8 hPa 0,0 l/m 0 min 0 min 0,0 UV-I 0 W/m 0,0 km/h (0 Bft)
24.07.2014 22:40 17,9 C 16,7 C 89 % 1014,8 hPa 0,0 l/m 0 min 0 min 0,0 UV-I 0 W/m 0,0 km/h (0 Bft)
24.07.2014 22:42 17,9 C 16,7 C 90 % 1014,8 hPa 0,0 l/m 0 min 0 min 0,0 UV-I 0 W/m 0,0 km/h (0 Bft)
24.07.2014 22:44 17,9 C 16,7 C 90 % 1014,8 hPa 0,0 l/m 0 min 0 min 0,0 UV-I 0 W/m 0,0 km/h (0 Bft)
24.07.2014 22:46 17,8 C 16,7 C 90 % 1014,9 hPa 0,0 l/m 0 min 0 min 0,0 UV-I 0 W/m 0,0 km/h (0 Bft)
24.07.2014 22:48 17,8 C 16,7 C 90 % 1014,9 hPa 0,0 l/m 0 min 0 min 0,0 UV-I 0 W/m 0,0 km/h (0 Bft)
24.07.2014 22:50 17,8 C 16,1 C 90 % 1015,0 hPa 0,0 l/m 0 min 0 min 0,0 UV-I 0 W/m 0,0 km/h (0 Bft)
24.07.2014 22:52 17,8 C 16,1 C 90 % 1015,0 hPa 0,0 l/m 0 min 0 min 0,0 UV-I 0 W/m 0,0 km/h (0 Bft)
24.07.2014 22:54 17,8 C 16,7 C 90 % 1015,0 hPa 0,0 l/m 0 min 0 min 0,0 UV-I 0 W/m 0,0 km/h (0 Bft)
24.07.2014 22:56 17,8 C 16,7 C 90 % 1015,1 hPa 0,0 l/m 0 min 0 min 0,0 UV-I 0 W/m 0,0 km/h (0 Bft)
24.07.2014 22:58 17,9 C 16,7 C 91 % 1015,2 hPa 0,0 l/m 0 min 0 min 0,0 UV-I 0 W/m 0,0 km/h (0 Bft)
24.07.2014 23:00 17,9 C 16,7 C 91 % 1015,2 hPa 0,0 l/m 0 min 0 min 0,0 UV-I 0 W/m 0,0 km/h (0 Bft)
24.07.2014 23:02 17,9 C 16,7 C 92 % 1015,3 hPa 0,0 l/m 0 min 0 min 0,0 UV-I 0 W/m 2,1 km/h (1 Bft)
24.07.2014 23:04 17,9 C 16,7 C 91 % 1015,2 hPa 0,0 l/m 0 min 0 min 0,0 UV-I 0 W/m 10,5 km/h (2 Bft)
24.07.2014 23:06 17,9 C 16,7 C 91 % 1015,2 hPa 0,0 l/m 0 min 0 min 0,0 UV-I 0 W/m 14,6 km/h (3 Bft)
24.07.2014 23:08 18,1 C 16,7 C 90 % 1015,1 hPa 0,0 l/m 0 min 0 min 0,0 UV-I 0 W/m 14,6 km/h (3 Bft)
24.07.2014 23:10 18,3 C 16,7 C 88 % 1015,1 hPa 0,0 l/m 0 min 0 min 0,0 UV-I 0 W/m 6,3 km/h (2 Bft)
24.07.2014 23:12 18,4 C 16,7 C 87 % 1015,1 hPa 0,0 l/m 0 min 0 min 0,0 UV-I 0 W/m 8,4 km/h (2 Bft)
24.07.2014 23:14 18,4 C 16,7 C 87 % 1015,1 hPa 0,0 l/m 0 min 0 min 0,0 UV-I 0 W/m 0,0 km/h (0 Bft)
24.07.2014 23:16 18,5 C 16,7 C 87 % 1015,0 hPa 0,0 l/m 0 min 0 min 0,0 UV-I 0 W/m 0,0 km/h (0 Bft)
24.07.2014 23:18 18,4 C 16,7 C 87 % 1014,9 hPa 0,0 l/m 0 min 0 min 0,0 UV-I 0 W/m 0,0 km/h (0 Bft)
24.07.2014 23:20 18,4 C 16,7 C 87 % 1015,0 hPa 0,0 l/m 0 min 0 min 0,0 UV-I 0 W/m 0,0 km/h (0 Bft)
24.07.2014 23:22 18,4 C 16,7 C 87 % 1015,0 hPa 0,0 l/m 0 min 0 min 0,0 UV-I 0 W/m 2,1 km/h (1 Bft)
24.07.2014 23:24 18,4 C 16,7 C 87 % 1015,0 hPa 0,0 l/m 0 min 0 min 0,0 UV-I 0 W/m 0,0 km/h (0 Bft)
24.07.2014 23:26 18,4 C 16,7 C 88 % 1015,0 hPa 0,0 l/m 0 min 0 min 0,0 UV-I 0 W/m 0,0 km/h (0 Bft)
24.07.2014 23:28 18,3 C 16,1 C 88 % 1015,1 hPa 0,0 l/m 0 min 0 min 0,0 UV-I 0 W/m 0,0 km/h (0 Bft)
24.07.2014 23:30 18,3 C 16,1 C 88 % 1015,0 hPa 0,0 l/m 0 min 0 min 0,0 UV-I 0 W/m 0,0 km/h (0 Bft)
24.07.2014 23:32 18,2 C 16,1 C 88 % 1015,0 hPa 0,0 l/m 0 min 0 min 0,0 UV-I 0 W/m 0,0 km/h (0 Bft)
24.07.2014 23:34 18,2 C 16,1 C 88 % 1015,0 hPa 0,0 l/m 0 min 0 min 0,0 UV-I 0 W/m 0,0 km/h (0 Bft)
24.07.2014 23:36 18,1 C 16,1 C 88 % 1015,0 hPa 0,0 l/m 0 min 0 min 0,0 UV-I 0 W/m 0,0 km/h (0 Bft)
24.07.2014 23:38 18,1 C 16,1 C 89 % 1015,0 hPa 0,0 l/m 0 min 0 min 0,0 UV-I 0 W/m 0,0 km/h (0 Bft)
24.07.2014 23:40 18,0 C 16,1 C 89 % 1015,1 hPa 0,0 l/m 0 min 0 min 0,0 UV-I 0 W/m 0,0 km/h (0 Bft)
24.07.2014 23:42 17,9 C 16,1 C 89 % 1015,1 hPa 0,0 l/m 0 min 0 min 0,0 UV-I 0 W/m 0,0 km/h (0 Bft)
24.07.2014 23:44 17,9 C 16,1 C 89 % 1015,1 hPa 0,0 l/m 0 min 0 min 0,0 UV-I 0 W/m 0,0 km/h (0 Bft)
24.07.2014 23:46 17,8 C 16,1 C 90 % 1015,1 hPa 0,0 l/m 0 min 0 min 0,0 UV-I 0 W/m 0,0 km/h (0 Bft)
24.07.2014 23:48 17,8 C 16,1 C 90 % 1015,0 hPa 0,0 l/m 0 min 0 min 0,0 UV-I 0 W/m 0,0 km/h (0 Bft)
24.07.2014 23:50 17,8 C 16,1 C 90 % 1015,0 hPa 0,0 l/m 0 min 0 min 0,0 UV-I 0 W/m 0,0 km/h (0 Bft)
24.07.2014 23:52 17,7 C 15,6 C 90 % 1015,0 hPa 0,0 l/m 0 min 0 min 0,0 UV-I 0 W/m 0,0 km/h (0 Bft)
24.07.2014 23:54 17,7 C 15,6 C 90 % 1015,0 hPa 0,0 l/m 0 min 0 min 0,0 UV-I 0 W/m 0,0 km/h (0 Bft)
24.07.2014 23:56 17,6 C 15,6 C 91 % 1015,0 hPa 0,0 l/m 0 min 0 min 0,0 UV-I 0 W/m 0,0 km/h (0 Bft)
24.07.2014 23:58 17,6 C 15,6 C 91 % 1015,0 hPa 0,0 l/m 0 min 0 min 0,0 UV-I 0 W/m 0,0 km/h (0 Bft)
_ Min-Zeit 06:14 05:38 16:26 16:00 - - - - - 00:00
Minimum _ 15,5 C 13,9 C 45 % 1013,1 hPa - - - - - 0,0 km/h (0 Bft)
_ Max-Zeit 15:18 16:34 06:30 00:00 20:34 06:00 20:10 13:14 13:20 18:00
Maximum _ 29,0 C 33,3 C 95 % 1015,7 hPa 0,2 l/m 2 min 2 min 4,9 UV-I 880 W/m 48,1 km/h
O (6 Bft)
Durchschnitt _ 21,5 C 20,7 C 73 % 1014,6 hPa #0,2 l/m #11:00 h #32 min. 2,8 UV-I 371 W/m 11,0 km/h (2 Bft)
© 2014 W. Hausmann